<?xml version="1.0" encoding="UTF-8" standalone="no" ?>
<gpx xmlns="http://www.topografix.com/GPX/1/1" xmlns:xsi="http://www.w3.org/2001/XMLSchema-instance" xsi:schemaLocation="http://www.topografix.com/GPX/1/1 http://www.topografix.com/GPX/1/1/gpx.xsd" version="1.1" creator="VisuGPX - https://www.visugpx.com">
  <metadata>
    <name>Petite variante Couchey-Rente de Chamerey-Fixin</name>
  </metadata>
  <trk>
    <name><![CDATA[21 mars 2021 14:58:58]]></name>
    <trkseg>
      <trkpt lat="47.26173" lon="4.97453">
        <ele>361</ele>
        <time>2021-03-21T13:59:00.000Z</time>
      </trkpt>
      <trkpt lat="47.26172" lon="4.97437">
        <ele>361</ele>
        <time>2021-03-21T14:00:26.000Z</time>
      </trkpt>
      <trkpt lat="47.26172" lon="4.97422">
        <ele>363</ele>
        <time>2021-03-21T14:00:30.000Z</time>
      </trkpt>
      <trkpt lat="47.26167" lon="4.97406">
        <ele>361</ele>
        <time>2021-03-21T14:00:36.000Z</time>
      </trkpt>
      <trkpt lat="47.26174" lon="4.97396">
        <ele>357</ele>
        <time>2021-03-21T14:01:21.000Z</time>
      </trkpt>
      <trkpt lat="47.26174" lon="4.97382">
        <ele>357</ele>
        <time>2021-03-21T14:01:27.000Z</time>
      </trkpt>
      <trkpt lat="47.26179" lon="4.9737">
        <ele>361</ele>
        <time>2021-03-21T14:01:41.000Z</time>
      </trkpt>
      <trkpt lat="47.26184" lon="4.97358">
        <ele>359</ele>
        <time>2021-03-21T14:01:48.000Z</time>
      </trkpt>
      <trkpt lat="47.26191" lon="4.97347">
        <ele>362</ele>
        <time>2021-03-21T14:01:59.000Z</time>
      </trkpt>
      <trkpt lat="47.26194" lon="4.97333">
        <ele>363</ele>
        <time>2021-03-21T14:02:06.000Z</time>
      </trkpt>
      <trkpt lat="47.26199" lon="4.97322">
        <ele>365</ele>
        <time>2021-03-21T14:02:14.000Z</time>
      </trkpt>
      <trkpt lat="47.26202" lon="4.97308">
        <ele>364</ele>
        <time>2021-03-21T14:02:26.000Z</time>
      </trkpt>
      <trkpt lat="47.26209" lon="4.97298">
        <ele>366</ele>
        <time>2021-03-21T14:02:35.000Z</time>
      </trkpt>
      <trkpt lat="47.26216" lon="4.97287">
        <ele>368</ele>
        <time>2021-03-21T14:02:45.000Z</time>
      </trkpt>
      <trkpt lat="47.26224" lon="4.97278">
        <ele>372</ele>
        <time>2021-03-21T14:02:54.000Z</time>
      </trkpt>
      <trkpt lat="47.26232" lon="4.97271">
        <ele>375</ele>
        <time>2021-03-21T14:03:01.000Z</time>
      </trkpt>
      <trkpt lat="47.2624" lon="4.97261">
        <ele>377</ele>
        <time>2021-03-21T14:03:15.000Z</time>
      </trkpt>
      <trkpt lat="47.26244" lon="4.97248">
        <ele>378</ele>
        <time>2021-03-21T14:03:24.000Z</time>
      </trkpt>
      <trkpt lat="47.26248" lon="4.97234">
        <ele>382</ele>
        <time>2021-03-21T14:03:36.000Z</time>
      </trkpt>
      <trkpt lat="47.26251" lon="4.97221">
        <ele>385</ele>
        <time>2021-03-21T14:03:46.000Z</time>
      </trkpt>
      <trkpt lat="47.26257" lon="4.9721">
        <ele>383</ele>
        <time>2021-03-21T14:03:55.000Z</time>
      </trkpt>
      <trkpt lat="47.26264" lon="4.97202">
        <ele>381</ele>
        <time>2021-03-21T14:04:10.000Z</time>
      </trkpt>
      <trkpt lat="47.26274" lon="4.97201">
        <ele>385</ele>
        <time>2021-03-21T14:04:22.000Z</time>
      </trkpt>
      <trkpt lat="47.26282" lon="4.97194">
        <ele>382</ele>
        <time>2021-03-21T14:04:48.000Z</time>
      </trkpt>
      <trkpt lat="47.2629" lon="4.97191">
        <ele>385</ele>
        <time>2021-03-21T14:04:57.000Z</time>
      </trkpt>
      <trkpt lat="47.26298" lon="4.97184">
        <ele>390</ele>
        <time>2021-03-21T14:05:16.000Z</time>
      </trkpt>
      <trkpt lat="47.263" lon="4.97171">
        <ele>394</ele>
        <time>2021-03-21T14:05:30.000Z</time>
      </trkpt>
      <trkpt lat="47.26302" lon="4.97158">
        <ele>391</ele>
        <time>2021-03-21T14:05:44.000Z</time>
      </trkpt>
      <trkpt lat="47.26311" lon="4.97154">
        <ele>394</ele>
        <time>2021-03-21T14:06:18.000Z</time>
      </trkpt>
      <trkpt lat="47.26316" lon="4.97143">
        <ele>395</ele>
        <time>2021-03-21T14:06:32.000Z</time>
      </trkpt>
      <trkpt lat="47.26324" lon="4.97136">
        <ele>395</ele>
        <time>2021-03-21T14:07:03.000Z</time>
      </trkpt>
      <trkpt lat="47.26328" lon="4.97124">
        <ele>394</ele>
        <time>2021-03-21T14:07:30.000Z</time>
      </trkpt>
      <trkpt lat="47.26334" lon="4.97113">
        <ele>398</ele>
        <time>2021-03-21T14:08:13.000Z</time>
      </trkpt>
      <trkpt lat="47.26343" lon="4.97111">
        <ele>401</ele>
        <time>2021-03-21T14:08:33.000Z</time>
      </trkpt>
      <trkpt lat="47.2635" lon="4.97102">
        <ele>407</ele>
        <time>2021-03-21T14:09:37.000Z</time>
      </trkpt>
      <trkpt lat="47.26357" lon="4.97094">
        <ele>409</ele>
        <time>2021-03-21T14:09:52.000Z</time>
      </trkpt>
      <trkpt lat="47.26364" lon="4.97085">
        <ele>417</ele>
        <time>2021-03-21T14:10:35.000Z</time>
      </trkpt>
      <trkpt lat="47.2637" lon="4.97072">
        <ele>416</ele>
        <time>2021-03-21T14:10:40.000Z</time>
      </trkpt>
      <trkpt lat="47.26376" lon="4.97061">
        <ele>413</ele>
        <time>2021-03-21T14:10:46.000Z</time>
      </trkpt>
      <trkpt lat="47.2638" lon="4.97048">
        <ele>416</ele>
        <time>2021-03-21T14:10:54.000Z</time>
      </trkpt>
      <trkpt lat="47.2638" lon="4.97035">
        <ele>419</ele>
        <time>2021-03-21T14:11:06.000Z</time>
      </trkpt>
      <trkpt lat="47.26382" lon="4.97022">
        <ele>422</ele>
        <time>2021-03-21T14:11:48.000Z</time>
      </trkpt>
      <trkpt lat="47.26379" lon="4.97007">
        <ele>425</ele>
        <time>2021-03-21T14:12:12.000Z</time>
      </trkpt>
      <trkpt lat="47.26374" lon="4.96995">
        <ele>424</ele>
        <time>2021-03-21T14:12:22.000Z</time>
      </trkpt>
      <trkpt lat="47.26375" lon="4.96981">
        <ele>425</ele>
        <time>2021-03-21T14:12:30.000Z</time>
      </trkpt>
      <trkpt lat="47.26374" lon="4.96967">
        <ele>425</ele>
        <time>2021-03-21T14:12:43.000Z</time>
      </trkpt>
      <trkpt lat="47.26378" lon="4.96953">
        <ele>431</ele>
        <time>2021-03-21T14:12:50.000Z</time>
      </trkpt>
      <trkpt lat="47.26379" lon="4.96939">
        <ele>389</ele>
        <time>2021-03-21T14:12:59.000Z</time>
      </trkpt>
      <trkpt lat="47.26376" lon="4.96927">
        <ele>433</ele>
        <time>2021-03-21T14:13:33.000Z</time>
      </trkpt>
      <trkpt lat="47.26379" lon="4.96912">
        <ele>440</ele>
        <time>2021-03-21T14:13:55.000Z</time>
      </trkpt>
      <trkpt lat="47.2638" lon="4.96899">
        <ele>441</ele>
        <time>2021-03-21T14:13:59.000Z</time>
      </trkpt>
      <trkpt lat="47.26389" lon="4.96895">
        <ele>441</ele>
        <time>2021-03-21T14:14:06.000Z</time>
      </trkpt>
      <trkpt lat="47.26385" lon="4.96882">
        <ele>442</ele>
        <time>2021-03-21T14:14:12.000Z</time>
      </trkpt>
      <trkpt lat="47.26382" lon="4.96868">
        <ele>445</ele>
        <time>2021-03-21T14:14:19.000Z</time>
      </trkpt>
      <trkpt lat="47.26384" lon="4.96855">
        <ele>445</ele>
        <time>2021-03-21T14:14:28.000Z</time>
      </trkpt>
      <trkpt lat="47.26387" lon="4.96843">
        <ele>449</ele>
        <time>2021-03-21T14:14:57.000Z</time>
      </trkpt>
      <trkpt lat="47.26384" lon="4.96829">
        <ele>451</ele>
        <time>2021-03-21T14:15:48.000Z</time>
      </trkpt>
      <trkpt lat="47.26391" lon="4.96818">
        <ele>456</ele>
        <time>2021-03-21T14:15:55.000Z</time>
      </trkpt>
      <trkpt lat="47.26392" lon="4.96804">
        <ele>455</ele>
        <time>2021-03-21T14:16:05.000Z</time>
      </trkpt>
      <trkpt lat="47.26396" lon="4.96791">
        <ele>461</ele>
        <time>2021-03-21T14:16:21.000Z</time>
      </trkpt>
      <trkpt lat="47.26399" lon="4.96778">
        <ele>457</ele>
        <time>2021-03-21T14:16:36.000Z</time>
      </trkpt>
      <trkpt lat="47.26396" lon="4.96765">
        <ele>455</ele>
        <time>2021-03-21T14:16:41.000Z</time>
      </trkpt>
      <trkpt lat="47.26392" lon="4.96753">
        <ele>459</ele>
        <time>2021-03-21T14:16:46.000Z</time>
      </trkpt>
      <trkpt lat="47.26388" lon="4.9674">
        <ele>416</ele>
        <time>2021-03-21T14:16:53.000Z</time>
      </trkpt>
      <trkpt lat="47.26394" lon="4.96729">
        <ele>445</ele>
        <time>2021-03-21T14:17:00.000Z</time>
      </trkpt>
      <trkpt lat="47.2639" lon="4.96716">
        <ele>452</ele>
        <time>2021-03-21T14:17:07.000Z</time>
      </trkpt>
      <trkpt lat="47.26384" lon="4.96704">
        <ele>454</ele>
        <time>2021-03-21T14:17:13.000Z</time>
      </trkpt>
      <trkpt lat="47.26391" lon="4.96692">
        <ele>462</ele>
        <time>2021-03-21T14:17:20.000Z</time>
      </trkpt>
      <trkpt lat="47.264" lon="4.96693">
        <ele>463</ele>
        <time>2021-03-21T14:17:25.000Z</time>
      </trkpt>
      <trkpt lat="47.26408" lon="4.96685">
        <ele>469</ele>
        <time>2021-03-21T14:17:37.000Z</time>
      </trkpt>
      <trkpt lat="47.2641" lon="4.96672">
        <ele>466</ele>
        <time>2021-03-21T14:17:47.000Z</time>
      </trkpt>
      <trkpt lat="47.26411" lon="4.96656">
        <ele>463</ele>
        <time>2021-03-21T14:17:56.000Z</time>
      </trkpt>
      <trkpt lat="47.2641" lon="4.96642">
        <ele>465</ele>
        <time>2021-03-21T14:18:06.000Z</time>
      </trkpt>
      <trkpt lat="47.2642" lon="4.96635">
        <ele>471</ele>
        <time>2021-03-21T14:18:17.000Z</time>
      </trkpt>
      <trkpt lat="47.26428" lon="4.96622">
        <ele>471</ele>
        <time>2021-03-21T14:18:32.000Z</time>
      </trkpt>
      <trkpt lat="47.26437" lon="4.96622">
        <ele>473</ele>
        <time>2021-03-21T14:18:36.000Z</time>
      </trkpt>
      <trkpt lat="47.26447" lon="4.96629">
        <ele>475</ele>
        <time>2021-03-21T14:18:39.000Z</time>
      </trkpt>
      <trkpt lat="47.26443" lon="4.96616">
        <ele>473</ele>
        <time>2021-03-21T14:19:01.000Z</time>
      </trkpt>
      <trkpt lat="47.26449" lon="4.96603">
        <ele>470</ele>
        <time>2021-03-21T14:19:07.000Z</time>
      </trkpt>
      <trkpt lat="47.2645" lon="4.96587">
        <ele>468</ele>
        <time>2021-03-21T14:19:12.000Z</time>
      </trkpt>
      <trkpt lat="47.26448" lon="4.96572">
        <ele>467</ele>
        <time>2021-03-21T14:19:16.000Z</time>
      </trkpt>
      <trkpt lat="47.26454" lon="4.96561">
        <ele>474</ele>
        <time>2021-03-21T14:19:24.000Z</time>
      </trkpt>
      <trkpt lat="47.26462" lon="4.9655">
        <ele>476</ele>
        <time>2021-03-21T14:19:34.000Z</time>
      </trkpt>
      <trkpt lat="47.26469" lon="4.9654">
        <ele>476</ele>
        <time>2021-03-21T14:19:39.000Z</time>
      </trkpt>
      <trkpt lat="47.26476" lon="4.96531">
        <ele>475</ele>
        <time>2021-03-21T14:19:48.000Z</time>
      </trkpt>
      <trkpt lat="47.26478" lon="4.96518">
        <ele>474</ele>
        <time>2021-03-21T14:19:56.000Z</time>
      </trkpt>
      <trkpt lat="47.26487" lon="4.96513">
        <ele>471</ele>
        <time>2021-03-21T14:20:04.000Z</time>
      </trkpt>
      <trkpt lat="47.26497" lon="4.96516">
        <ele>468</ele>
        <time>2021-03-21T14:20:29.000Z</time>
      </trkpt>
      <trkpt lat="47.26506" lon="4.9651">
        <ele>467</ele>
        <time>2021-03-21T14:20:33.000Z</time>
      </trkpt>
      <trkpt lat="47.26509" lon="4.96498">
        <ele>475</ele>
        <time>2021-03-21T14:20:37.000Z</time>
      </trkpt>
      <trkpt lat="47.26515" lon="4.96486">
        <ele>470</ele>
        <time>2021-03-21T14:20:47.000Z</time>
      </trkpt>
      <trkpt lat="47.26523" lon="4.96476">
        <ele>471</ele>
        <time>2021-03-21T14:20:53.000Z</time>
      </trkpt>
      <trkpt lat="47.26535" lon="4.9647">
        <ele>469</ele>
        <time>2021-03-21T14:20:57.000Z</time>
      </trkpt>
      <trkpt lat="47.2654" lon="4.96459">
        <ele>469</ele>
        <time>2021-03-21T14:21:11.000Z</time>
      </trkpt>
      <trkpt lat="47.26544" lon="4.96447">
        <ele>477</ele>
        <time>2021-03-21T14:21:25.000Z</time>
      </trkpt>
      <trkpt lat="47.26541" lon="4.96428">
        <ele>480</ele>
        <time>2021-03-21T14:21:31.000Z</time>
      </trkpt>
      <trkpt lat="47.26543" lon="4.96415">
        <ele>485</ele>
        <time>2021-03-21T14:21:37.000Z</time>
      </trkpt>
      <trkpt lat="47.26548" lon="4.96403">
        <ele>482</ele>
        <time>2021-03-21T14:21:44.000Z</time>
      </trkpt>
      <trkpt lat="47.26555" lon="4.96395">
        <ele>483</ele>
        <time>2021-03-21T14:21:53.000Z</time>
      </trkpt>
      <trkpt lat="47.26555" lon="4.9638">
        <ele>484</ele>
        <time>2021-03-21T14:21:58.000Z</time>
      </trkpt>
      <trkpt lat="47.26556" lon="4.96366">
        <ele>487</ele>
        <time>2021-03-21T14:22:03.000Z</time>
      </trkpt>
      <trkpt lat="47.26556" lon="4.96349">
        <ele>489</ele>
        <time>2021-03-21T14:22:09.000Z</time>
      </trkpt>
      <trkpt lat="47.26557" lon="4.96335">
        <ele>490</ele>
        <time>2021-03-21T14:22:15.000Z</time>
      </trkpt>
      <trkpt lat="47.26562" lon="4.96323">
        <ele>489</ele>
        <time>2021-03-21T14:22:28.000Z</time>
      </trkpt>
      <trkpt lat="47.26568" lon="4.96313">
        <ele>489</ele>
        <time>2021-03-21T14:22:35.000Z</time>
      </trkpt>
      <trkpt lat="47.26571" lon="4.96301">
        <ele>485</ele>
        <time>2021-03-21T14:22:43.000Z</time>
      </trkpt>
      <trkpt lat="47.26575" lon="4.96287">
        <ele>486</ele>
        <time>2021-03-21T14:22:55.000Z</time>
      </trkpt>
      <trkpt lat="47.26578" lon="4.96274">
        <ele>486</ele>
        <time>2021-03-21T14:23:04.000Z</time>
      </trkpt>
      <trkpt lat="47.26583" lon="4.96262">
        <ele>491</ele>
        <time>2021-03-21T14:23:10.000Z</time>
      </trkpt>
      <trkpt lat="47.26585" lon="4.96246">
        <ele>494</ele>
        <time>2021-03-21T14:23:17.000Z</time>
      </trkpt>
      <trkpt lat="47.26585" lon="4.96231">
        <ele>493</ele>
        <time>2021-03-21T14:23:26.000Z</time>
      </trkpt>
      <trkpt lat="47.26586" lon="4.96217">
        <ele>494</ele>
        <time>2021-03-21T14:23:33.000Z</time>
      </trkpt>
      <trkpt lat="47.26592" lon="4.96206">
        <ele>497</ele>
        <time>2021-03-21T14:23:40.000Z</time>
      </trkpt>
      <trkpt lat="47.266" lon="4.96201">
        <ele>489</ele>
        <time>2021-03-21T14:23:53.000Z</time>
      </trkpt>
      <trkpt lat="47.26596" lon="4.96187">
        <ele>489</ele>
        <time>2021-03-21T14:23:57.000Z</time>
      </trkpt>
      <trkpt lat="47.26603" lon="4.96178">
        <ele>490</ele>
        <time>2021-03-21T14:24:08.000Z</time>
      </trkpt>
      <trkpt lat="47.2661" lon="4.9617">
        <ele>489</ele>
        <time>2021-03-21T14:24:15.000Z</time>
      </trkpt>
      <trkpt lat="47.26615" lon="4.96156">
        <ele>491</ele>
        <time>2021-03-21T14:24:23.000Z</time>
      </trkpt>
      <trkpt lat="47.26619" lon="4.96144">
        <ele>492</ele>
        <time>2021-03-21T14:24:30.000Z</time>
      </trkpt>
      <trkpt lat="47.26624" lon="4.96133">
        <ele>491</ele>
        <time>2021-03-21T14:24:40.000Z</time>
      </trkpt>
      <trkpt lat="47.26629" lon="4.96121">
        <ele>490</ele>
        <time>2021-03-21T14:24:46.000Z</time>
      </trkpt>
      <trkpt lat="47.26633" lon="4.96108">
        <ele>490</ele>
        <time>2021-03-21T14:24:58.000Z</time>
      </trkpt>
      <trkpt lat="47.26637" lon="4.96096">
        <ele>492</ele>
        <time>2021-03-21T14:25:04.000Z</time>
      </trkpt>
      <trkpt lat="47.26646" lon="4.96091">
        <ele>494</ele>
        <time>2021-03-21T14:25:10.000Z</time>
      </trkpt>
      <trkpt lat="47.26655" lon="4.96083">
        <ele>494</ele>
        <time>2021-03-21T14:25:19.000Z</time>
      </trkpt>
      <trkpt lat="47.2666" lon="4.9607">
        <ele>493</ele>
        <time>2021-03-21T14:25:27.000Z</time>
      </trkpt>
      <trkpt lat="47.26664" lon="4.96057">
        <ele>401</ele>
        <time>2021-03-21T14:25:36.000Z</time>
      </trkpt>
      <trkpt lat="47.2667" lon="4.96045">
        <ele>492</ele>
        <time>2021-03-21T14:25:46.000Z</time>
      </trkpt>
      <trkpt lat="47.26673" lon="4.96032">
        <ele>494</ele>
        <time>2021-03-21T14:25:52.000Z</time>
      </trkpt>
      <trkpt lat="47.26679" lon="4.96022">
        <ele>492</ele>
        <time>2021-03-21T14:26:04.000Z</time>
      </trkpt>
      <trkpt lat="47.26677" lon="4.96008">
        <ele>499</ele>
        <time>2021-03-21T14:26:11.000Z</time>
      </trkpt>
      <trkpt lat="47.26686" lon="4.96006">
        <ele>504</ele>
        <time>2021-03-21T14:26:18.000Z</time>
      </trkpt>
      <trkpt lat="47.26693" lon="4.95995">
        <ele>505</ele>
        <time>2021-03-21T14:26:26.000Z</time>
      </trkpt>
      <trkpt lat="47.26692" lon="4.95982">
        <ele>505</ele>
        <time>2021-03-21T14:26:30.000Z</time>
      </trkpt>
      <trkpt lat="47.2669" lon="4.95967">
        <ele>507</ele>
        <time>2021-03-21T14:26:34.000Z</time>
      </trkpt>
      <trkpt lat="47.26692" lon="4.95953">
        <ele>506</ele>
        <time>2021-03-21T14:26:43.000Z</time>
      </trkpt>
      <trkpt lat="47.26692" lon="4.95938">
        <ele>507</ele>
        <time>2021-03-21T14:26:48.000Z</time>
      </trkpt>
      <trkpt lat="47.26692" lon="4.95924">
        <ele>507</ele>
        <time>2021-03-21T14:26:53.000Z</time>
      </trkpt>
      <trkpt lat="47.26691" lon="4.95908">
        <ele>492</ele>
        <time>2021-03-21T14:27:01.000Z</time>
      </trkpt>
      <trkpt lat="47.267" lon="4.95911">
        <ele>508</ele>
        <time>2021-03-21T14:27:08.000Z</time>
      </trkpt>
      <trkpt lat="47.26707" lon="4.95921">
        <ele>510</ele>
        <time>2021-03-21T14:27:13.000Z</time>
      </trkpt>
      <trkpt lat="47.26711" lon="4.95905">
        <ele>511</ele>
        <time>2021-03-21T14:27:22.000Z</time>
      </trkpt>
      <trkpt lat="47.26707" lon="4.9589">
        <ele>512</ele>
        <time>2021-03-21T14:27:25.000Z</time>
      </trkpt>
      <trkpt lat="47.26706" lon="4.95876">
        <ele>512</ele>
        <time>2021-03-21T14:27:30.000Z</time>
      </trkpt>
      <trkpt lat="47.2671" lon="4.95865">
        <ele>514</ele>
        <time>2021-03-21T14:27:39.000Z</time>
      </trkpt>
      <trkpt lat="47.26715" lon="4.95852">
        <ele>493</ele>
        <time>2021-03-21T14:27:48.000Z</time>
      </trkpt>
      <trkpt lat="47.26718" lon="4.95837">
        <ele>508</ele>
        <time>2021-03-21T14:27:56.000Z</time>
      </trkpt>
      <trkpt lat="47.26726" lon="4.95829">
        <ele>507</ele>
        <time>2021-03-21T14:28:08.000Z</time>
      </trkpt>
      <trkpt lat="47.26731" lon="4.95817">
        <ele>506</ele>
        <time>2021-03-21T14:28:17.000Z</time>
      </trkpt>
      <trkpt lat="47.26738" lon="4.95807">
        <ele>504</ele>
        <time>2021-03-21T14:28:27.000Z</time>
      </trkpt>
      <trkpt lat="47.26741" lon="4.95792">
        <ele>508</ele>
        <time>2021-03-21T14:28:35.000Z</time>
      </trkpt>
      <trkpt lat="47.26743" lon="4.95778">
        <ele>506</ele>
        <time>2021-03-21T14:28:41.000Z</time>
      </trkpt>
      <trkpt lat="47.26745" lon="4.95765">
        <ele>508</ele>
        <time>2021-03-21T14:28:46.000Z</time>
      </trkpt>
      <trkpt lat="47.26746" lon="4.9575">
        <ele>510</ele>
        <time>2021-03-21T14:28:51.000Z</time>
      </trkpt>
      <trkpt lat="47.26749" lon="4.95737">
        <ele>510</ele>
        <time>2021-03-21T14:28:59.000Z</time>
      </trkpt>
      <trkpt lat="47.26758" lon="4.95735">
        <ele>510</ele>
        <time>2021-03-21T14:29:11.000Z</time>
      </trkpt>
      <trkpt lat="47.26757" lon="4.95718">
        <ele>510</ele>
        <time>2021-03-21T14:29:17.000Z</time>
      </trkpt>
      <trkpt lat="47.2676" lon="4.95705">
        <ele>507</ele>
        <time>2021-03-21T14:29:25.000Z</time>
      </trkpt>
      <trkpt lat="47.26766" lon="4.95694">
        <ele>506</ele>
        <time>2021-03-21T14:29:36.000Z</time>
      </trkpt>
      <trkpt lat="47.26767" lon="4.9568">
        <ele>507</ele>
        <time>2021-03-21T14:29:43.000Z</time>
      </trkpt>
      <trkpt lat="47.26768" lon="4.95665">
        <ele>509</ele>
        <time>2021-03-21T14:29:49.000Z</time>
      </trkpt>
      <trkpt lat="47.26773" lon="4.95653">
        <ele>510</ele>
        <time>2021-03-21T14:29:57.000Z</time>
      </trkpt>
      <trkpt lat="47.26779" lon="4.95643">
        <ele>508</ele>
        <time>2021-03-21T14:30:04.000Z</time>
      </trkpt>
      <trkpt lat="47.26785" lon="4.9563">
        <ele>509</ele>
        <time>2021-03-21T14:30:13.000Z</time>
      </trkpt>
      <trkpt lat="47.2679" lon="4.95615">
        <ele>513</ele>
        <time>2021-03-21T14:30:25.000Z</time>
      </trkpt>
      <trkpt lat="47.2679" lon="4.95601">
        <ele>510</ele>
        <time>2021-03-21T14:30:31.000Z</time>
      </trkpt>
      <trkpt lat="47.26791" lon="4.95587">
        <ele>511</ele>
        <time>2021-03-21T14:30:35.000Z</time>
      </trkpt>
      <trkpt lat="47.26795" lon="4.95575">
        <ele>516</ele>
        <time>2021-03-21T14:30:44.000Z</time>
      </trkpt>
      <trkpt lat="47.26794" lon="4.95561">
        <ele>516</ele>
        <time>2021-03-21T14:30:53.000Z</time>
      </trkpt>
      <trkpt lat="47.26795" lon="4.95547">
        <ele>512</ele>
        <time>2021-03-21T14:31:01.000Z</time>
      </trkpt>
      <trkpt lat="47.26795" lon="4.95534">
        <ele>512</ele>
        <time>2021-03-21T14:31:06.000Z</time>
      </trkpt>
      <trkpt lat="47.26794" lon="4.95519">
        <ele>512</ele>
        <time>2021-03-21T14:31:10.000Z</time>
      </trkpt>
      <trkpt lat="47.26794" lon="4.95505">
        <ele>515</ele>
        <time>2021-03-21T14:31:16.000Z</time>
      </trkpt>
      <trkpt lat="47.26796" lon="4.95492">
        <ele>515</ele>
        <time>2021-03-21T14:31:25.000Z</time>
      </trkpt>
      <trkpt lat="47.26796" lon="4.95478">
        <ele>515</ele>
        <time>2021-03-21T14:31:39.000Z</time>
      </trkpt>
      <trkpt lat="47.26798" lon="4.95463">
        <ele>515</ele>
        <time>2021-03-21T14:31:46.000Z</time>
      </trkpt>
      <trkpt lat="47.26799" lon="4.95447">
        <ele>514</ele>
        <time>2021-03-21T14:31:53.000Z</time>
      </trkpt>
      <trkpt lat="47.26799" lon="4.95433">
        <ele>513</ele>
        <time>2021-03-21T14:32:00.000Z</time>
      </trkpt>
      <trkpt lat="47.268" lon="4.95419">
        <ele>517</ele>
        <time>2021-03-21T14:32:08.000Z</time>
      </trkpt>
      <trkpt lat="47.26805" lon="4.95407">
        <ele>517</ele>
        <time>2021-03-21T14:32:20.000Z</time>
      </trkpt>
      <trkpt lat="47.26805" lon="4.95393">
        <ele>517</ele>
        <time>2021-03-21T14:32:29.000Z</time>
      </trkpt>
      <trkpt lat="47.26806" lon="4.95378">
        <ele>513</ele>
        <time>2021-03-21T14:32:38.000Z</time>
      </trkpt>
      <trkpt lat="47.26805" lon="4.95364">
        <ele>513</ele>
        <time>2021-03-21T14:32:43.000Z</time>
      </trkpt>
      <trkpt lat="47.26806" lon="4.9535">
        <ele>518</ele>
        <time>2021-03-21T14:32:51.000Z</time>
      </trkpt>
      <trkpt lat="47.2681" lon="4.95338">
        <ele>520</ele>
        <time>2021-03-21T14:33:05.000Z</time>
      </trkpt>
      <trkpt lat="47.2681" lon="4.95322">
        <ele>517</ele>
        <time>2021-03-21T14:33:11.000Z</time>
      </trkpt>
      <trkpt lat="47.26808" lon="4.95305">
        <ele>519</ele>
        <time>2021-03-21T14:33:20.000Z</time>
      </trkpt>
      <trkpt lat="47.2681" lon="4.95291">
        <ele>520</ele>
        <time>2021-03-21T14:33:24.000Z</time>
      </trkpt>
      <trkpt lat="47.26816" lon="4.95281">
        <ele>519</ele>
        <time>2021-03-21T14:33:32.000Z</time>
      </trkpt>
      <trkpt lat="47.26819" lon="4.95267">
        <ele>517</ele>
        <time>2021-03-21T14:33:41.000Z</time>
      </trkpt>
      <trkpt lat="47.26821" lon="4.95253">
        <ele>514</ele>
        <time>2021-03-21T14:33:49.000Z</time>
      </trkpt>
      <trkpt lat="47.26823" lon="4.9524">
        <ele>512</ele>
        <time>2021-03-21T14:33:59.000Z</time>
      </trkpt>
      <trkpt lat="47.26825" lon="4.95226">
        <ele>511</ele>
        <time>2021-03-21T14:34:07.000Z</time>
      </trkpt>
      <trkpt lat="47.26826" lon="4.95212">
        <ele>511</ele>
        <time>2021-03-21T14:34:14.000Z</time>
      </trkpt>
      <trkpt lat="47.26826" lon="4.95198">
        <ele>511</ele>
        <time>2021-03-21T14:34:21.000Z</time>
      </trkpt>
      <trkpt lat="47.26825" lon="4.95183">
        <ele>512</ele>
        <time>2021-03-21T14:34:26.000Z</time>
      </trkpt>
      <trkpt lat="47.26826" lon="4.9517">
        <ele>515</ele>
        <time>2021-03-21T14:34:31.000Z</time>
      </trkpt>
      <trkpt lat="47.26831" lon="4.95159">
        <ele>516</ele>
        <time>2021-03-21T14:34:41.000Z</time>
      </trkpt>
      <trkpt lat="47.26836" lon="4.95147">
        <ele>519</ele>
        <time>2021-03-21T14:34:48.000Z</time>
      </trkpt>
      <trkpt lat="47.26838" lon="4.95134">
        <ele>521</ele>
        <time>2021-03-21T14:34:55.000Z</time>
      </trkpt>
      <trkpt lat="47.26842" lon="4.95122">
        <ele>519</ele>
        <time>2021-03-21T14:35:05.000Z</time>
      </trkpt>
      <trkpt lat="47.26841" lon="4.95105">
        <ele>518</ele>
        <time>2021-03-21T14:35:10.000Z</time>
      </trkpt>
      <trkpt lat="47.26841" lon="4.95091">
        <ele>522</ele>
        <time>2021-03-21T14:35:15.000Z</time>
      </trkpt>
      <trkpt lat="47.26843" lon="4.95077">
        <ele>519</ele>
        <time>2021-03-21T14:35:26.000Z</time>
      </trkpt>
      <trkpt lat="47.26846" lon="4.95064">
        <ele>516</ele>
        <time>2021-03-21T14:35:35.000Z</time>
      </trkpt>
      <trkpt lat="47.26847" lon="4.95051">
        <ele>514</ele>
        <time>2021-03-21T14:35:46.000Z</time>
      </trkpt>
      <trkpt lat="47.26853" lon="4.95038">
        <ele>517</ele>
        <time>2021-03-21T14:35:53.000Z</time>
      </trkpt>
      <trkpt lat="47.26857" lon="4.95025">
        <ele>520</ele>
        <time>2021-03-21T14:36:00.000Z</time>
      </trkpt>
      <trkpt lat="47.26858" lon="4.95011">
        <ele>521</ele>
        <time>2021-03-21T14:36:07.000Z</time>
      </trkpt>
      <trkpt lat="47.26857" lon="4.94996">
        <ele>523</ele>
        <time>2021-03-21T14:36:13.000Z</time>
      </trkpt>
      <trkpt lat="47.26858" lon="4.94982">
        <ele>523</ele>
        <time>2021-03-21T14:36:18.000Z</time>
      </trkpt>
      <trkpt lat="47.26862" lon="4.94968">
        <ele>524</ele>
        <time>2021-03-21T14:36:25.000Z</time>
      </trkpt>
      <trkpt lat="47.26868" lon="4.94955">
        <ele>521</ele>
        <time>2021-03-21T14:36:33.000Z</time>
      </trkpt>
      <trkpt lat="47.26873" lon="4.94943">
        <ele>520</ele>
        <time>2021-03-21T14:36:42.000Z</time>
      </trkpt>
      <trkpt lat="47.26881" lon="4.94934">
        <ele>517</ele>
        <time>2021-03-21T14:36:53.000Z</time>
      </trkpt>
      <trkpt lat="47.26884" lon="4.94921">
        <ele>518</ele>
        <time>2021-03-21T14:37:00.000Z</time>
      </trkpt>
      <trkpt lat="47.26882" lon="4.94907">
        <ele>519</ele>
        <time>2021-03-21T14:37:09.000Z</time>
      </trkpt>
      <trkpt lat="47.26885" lon="4.94893">
        <ele>518</ele>
        <time>2021-03-21T14:37:16.000Z</time>
      </trkpt>
      <trkpt lat="47.26891" lon="4.94882">
        <ele>520</ele>
        <time>2021-03-21T14:37:24.000Z</time>
      </trkpt>
      <trkpt lat="47.26897" lon="4.9487">
        <ele>522</ele>
        <time>2021-03-21T14:37:33.000Z</time>
      </trkpt>
      <trkpt lat="47.26901" lon="4.94857">
        <ele>519</ele>
        <time>2021-03-21T14:37:40.000Z</time>
      </trkpt>
      <trkpt lat="47.26903" lon="4.94842">
        <ele>519</ele>
        <time>2021-03-21T14:37:47.000Z</time>
      </trkpt>
      <trkpt lat="47.26909" lon="4.9483">
        <ele>519</ele>
        <time>2021-03-21T14:37:55.000Z</time>
      </trkpt>
      <trkpt lat="47.2691" lon="4.94817">
        <ele>520</ele>
        <time>2021-03-21T14:38:04.000Z</time>
      </trkpt>
      <trkpt lat="47.26916" lon="4.94806">
        <ele>518</ele>
        <time>2021-03-21T14:38:13.000Z</time>
      </trkpt>
      <trkpt lat="47.26921" lon="4.94794">
        <ele>518</ele>
        <time>2021-03-21T14:38:21.000Z</time>
      </trkpt>
      <trkpt lat="47.26929" lon="4.94787">
        <ele>515</ele>
        <time>2021-03-21T14:38:30.000Z</time>
      </trkpt>
      <trkpt lat="47.26938" lon="4.94781">
        <ele>516</ele>
        <time>2021-03-21T14:38:40.000Z</time>
      </trkpt>
      <trkpt lat="47.26936" lon="4.94768">
        <ele>518</ele>
        <time>2021-03-21T14:38:46.000Z</time>
      </trkpt>
      <trkpt lat="47.26939" lon="4.94756">
        <ele>516</ele>
        <time>2021-03-21T14:38:54.000Z</time>
      </trkpt>
      <trkpt lat="47.26942" lon="4.94741">
        <ele>516</ele>
        <time>2021-03-21T14:39:01.000Z</time>
      </trkpt>
      <trkpt lat="47.26943" lon="4.94726">
        <ele>520</ele>
        <time>2021-03-21T14:39:08.000Z</time>
      </trkpt>
      <trkpt lat="47.26948" lon="4.94713">
        <ele>522</ele>
        <time>2021-03-21T14:39:13.000Z</time>
      </trkpt>
      <trkpt lat="47.26953" lon="4.94699">
        <ele>523</ele>
        <time>2021-03-21T14:39:23.000Z</time>
      </trkpt>
      <trkpt lat="47.26954" lon="4.94684">
        <ele>519</ele>
        <time>2021-03-21T14:39:30.000Z</time>
      </trkpt>
      <trkpt lat="47.26962" lon="4.94674">
        <ele>519</ele>
        <time>2021-03-21T14:39:42.000Z</time>
      </trkpt>
      <trkpt lat="47.26969" lon="4.94665">
        <ele>519</ele>
        <time>2021-03-21T14:39:52.000Z</time>
      </trkpt>
      <trkpt lat="47.26972" lon="4.94651">
        <ele>519</ele>
        <time>2021-03-21T14:39:57.000Z</time>
      </trkpt>
      <trkpt lat="47.26977" lon="4.94638">
        <ele>518</ele>
        <time>2021-03-21T14:40:03.000Z</time>
      </trkpt>
      <trkpt lat="47.26981" lon="4.94626">
        <ele>517</ele>
        <time>2021-03-21T14:40:10.000Z</time>
      </trkpt>
      <trkpt lat="47.26987" lon="4.94616">
        <ele>521</ele>
        <time>2021-03-21T14:40:19.000Z</time>
      </trkpt>
      <trkpt lat="47.26996" lon="4.94608">
        <ele>523</ele>
        <time>2021-03-21T14:40:27.000Z</time>
      </trkpt>
      <trkpt lat="47.26998" lon="4.94594">
        <ele>524</ele>
        <time>2021-03-21T14:40:32.000Z</time>
      </trkpt>
      <trkpt lat="47.26996" lon="4.94578">
        <ele>525</ele>
        <time>2021-03-21T14:40:36.000Z</time>
      </trkpt>
      <trkpt lat="47.27003" lon="4.94572">
        <ele>526</ele>
        <time>2021-03-21T14:40:43.000Z</time>
      </trkpt>
      <trkpt lat="47.2701" lon="4.94561">
        <ele>533</ele>
        <time>2021-03-21T14:40:51.000Z</time>
      </trkpt>
      <trkpt lat="47.27008" lon="4.94548">
        <ele>533</ele>
        <time>2021-03-21T14:40:58.000Z</time>
      </trkpt>
      <trkpt lat="47.27018" lon="4.94545">
        <ele>532</ele>
        <time>2021-03-21T14:41:07.000Z</time>
      </trkpt>
      <trkpt lat="47.27019" lon="4.94532">
        <ele>535</ele>
        <time>2021-03-21T14:41:14.000Z</time>
      </trkpt>
      <trkpt lat="47.2702" lon="4.94517">
        <ele>535</ele>
        <time>2021-03-21T14:41:20.000Z</time>
      </trkpt>
      <trkpt lat="47.27021" lon="4.94503">
        <ele>537</ele>
        <time>2021-03-21T14:41:25.000Z</time>
      </trkpt>
      <trkpt lat="47.27027" lon="4.94492">
        <ele>537</ele>
        <time>2021-03-21T14:41:33.000Z</time>
      </trkpt>
      <trkpt lat="47.27033" lon="4.94481">
        <ele>537</ele>
        <time>2021-03-21T14:41:43.000Z</time>
      </trkpt>
      <trkpt lat="47.27037" lon="4.94468">
        <ele>537</ele>
        <time>2021-03-21T14:41:53.000Z</time>
      </trkpt>
      <trkpt lat="47.27038" lon="4.94455">
        <ele>537</ele>
        <time>2021-03-21T14:42:03.000Z</time>
      </trkpt>
      <trkpt lat="47.27041" lon="4.94441">
        <ele>537</ele>
        <time>2021-03-21T14:42:10.000Z</time>
      </trkpt>
      <trkpt lat="47.27037" lon="4.94424">
        <ele>535</ele>
        <time>2021-03-21T14:42:15.000Z</time>
      </trkpt>
      <trkpt lat="47.27034" lon="4.94412">
        <ele>533</ele>
        <time>2021-03-21T14:42:20.000Z</time>
      </trkpt>
      <trkpt lat="47.27036" lon="4.94397">
        <ele>538</ele>
        <time>2021-03-21T14:42:28.000Z</time>
      </trkpt>
      <trkpt lat="47.27037" lon="4.94383">
        <ele>539</ele>
        <time>2021-03-21T14:42:35.000Z</time>
      </trkpt>
      <trkpt lat="47.27037" lon="4.9437">
        <ele>539</ele>
        <time>2021-03-21T14:42:43.000Z</time>
      </trkpt>
      <trkpt lat="47.27038" lon="4.94356">
        <ele>542</ele>
        <time>2021-03-21T14:42:50.000Z</time>
      </trkpt>
      <trkpt lat="47.27042" lon="4.94343">
        <ele>543</ele>
        <time>2021-03-21T14:43:02.000Z</time>
      </trkpt>
      <trkpt lat="47.27046" lon="4.94331">
        <ele>539</ele>
        <time>2021-03-21T14:43:11.000Z</time>
      </trkpt>
      <trkpt lat="47.27049" lon="4.94318">
        <ele>540</ele>
        <time>2021-03-21T14:43:23.000Z</time>
      </trkpt>
      <trkpt lat="47.27046" lon="4.94302">
        <ele>540</ele>
        <time>2021-03-21T14:43:30.000Z</time>
      </trkpt>
      <trkpt lat="47.27045" lon="4.94288">
        <ele>542</ele>
        <time>2021-03-21T14:43:36.000Z</time>
      </trkpt>
      <trkpt lat="47.27044" lon="4.94272">
        <ele>545</ele>
        <time>2021-03-21T14:43:42.000Z</time>
      </trkpt>
      <trkpt lat="47.27043" lon="4.94258">
        <ele>544</ele>
        <time>2021-03-21T14:43:48.000Z</time>
      </trkpt>
      <trkpt lat="47.27047" lon="4.94245">
        <ele>548</ele>
        <time>2021-03-21T14:44:00.000Z</time>
      </trkpt>
      <trkpt lat="47.27046" lon="4.94232">
        <ele>543</ele>
        <time>2021-03-21T14:44:07.000Z</time>
      </trkpt>
      <trkpt lat="47.27048" lon="4.94217">
        <ele>547</ele>
        <time>2021-03-21T14:44:17.000Z</time>
      </trkpt>
      <trkpt lat="47.27051" lon="4.942">
        <ele>553</ele>
        <time>2021-03-21T14:44:28.000Z</time>
      </trkpt>
      <trkpt lat="47.27052" lon="4.94183">
        <ele>550</ele>
        <time>2021-03-21T14:44:40.000Z</time>
      </trkpt>
      <trkpt lat="47.2706" lon="4.94174">
        <ele>551</ele>
        <time>2021-03-21T14:44:53.000Z</time>
      </trkpt>
      <trkpt lat="47.27056" lon="4.94158">
        <ele>549</ele>
        <time>2021-03-21T14:44:58.000Z</time>
      </trkpt>
      <trkpt lat="47.27057" lon="4.94144">
        <ele>550</ele>
        <time>2021-03-21T14:45:02.000Z</time>
      </trkpt>
      <trkpt lat="47.27057" lon="4.94128">
        <ele>545</ele>
        <time>2021-03-21T14:45:08.000Z</time>
      </trkpt>
      <trkpt lat="47.27058" lon="4.94114">
        <ele>546</ele>
        <time>2021-03-21T14:45:13.000Z</time>
      </trkpt>
      <trkpt lat="47.27062" lon="4.941">
        <ele>546</ele>
        <time>2021-03-21T14:45:25.000Z</time>
      </trkpt>
      <trkpt lat="47.27072" lon="4.94091">
        <ele>546</ele>
        <time>2021-03-21T14:45:35.000Z</time>
      </trkpt>
      <trkpt lat="47.27081" lon="4.94077">
        <ele>550</ele>
        <time>2021-03-21T14:45:44.000Z</time>
      </trkpt>
      <trkpt lat="47.27084" lon="4.94059">
        <ele>545</ele>
        <time>2021-03-21T14:45:56.000Z</time>
      </trkpt>
      <trkpt lat="47.27088" lon="4.94041">
        <ele>551</ele>
        <time>2021-03-21T14:46:05.000Z</time>
      </trkpt>
      <trkpt lat="47.27097" lon="4.94031">
        <ele>547</ele>
        <time>2021-03-21T14:46:14.000Z</time>
      </trkpt>
      <trkpt lat="47.27103" lon="4.94018">
        <ele>550</ele>
        <time>2021-03-21T14:46:22.000Z</time>
      </trkpt>
      <trkpt lat="47.27106" lon="4.94004">
        <ele>551</ele>
        <time>2021-03-21T14:46:28.000Z</time>
      </trkpt>
      <trkpt lat="47.27115" lon="4.93998">
        <ele>548</ele>
        <time>2021-03-21T14:46:39.000Z</time>
      </trkpt>
      <trkpt lat="47.27124" lon="4.93995">
        <ele>544</ele>
        <time>2021-03-21T14:46:45.000Z</time>
      </trkpt>
      <trkpt lat="47.27128" lon="4.93982">
        <ele>545</ele>
        <time>2021-03-21T14:46:55.000Z</time>
      </trkpt>
      <trkpt lat="47.27132" lon="4.93966">
        <ele>547</ele>
        <time>2021-03-21T14:47:01.000Z</time>
      </trkpt>
      <trkpt lat="47.27139" lon="4.93955">
        <ele>549</ele>
        <time>2021-03-21T14:47:10.000Z</time>
      </trkpt>
      <trkpt lat="47.27143" lon="4.93937">
        <ele>551</ele>
        <time>2021-03-21T14:47:19.000Z</time>
      </trkpt>
      <trkpt lat="47.27152" lon="4.93925">
        <ele>550</ele>
        <time>2021-03-21T14:47:28.000Z</time>
      </trkpt>
      <trkpt lat="47.27156" lon="4.93908">
        <ele>552</ele>
        <time>2021-03-21T14:47:37.000Z</time>
      </trkpt>
      <trkpt lat="47.27165" lon="4.93902">
        <ele>552</ele>
        <time>2021-03-21T14:47:46.000Z</time>
      </trkpt>
      <trkpt lat="47.27169" lon="4.93887">
        <ele>554</ele>
        <time>2021-03-21T14:47:55.000Z</time>
      </trkpt>
      <trkpt lat="47.27165" lon="4.93872">
        <ele>556</ele>
        <time>2021-03-21T14:48:07.000Z</time>
      </trkpt>
      <trkpt lat="47.2716" lon="4.93857">
        <ele>551</ele>
        <time>2021-03-21T14:48:17.000Z</time>
      </trkpt>
      <trkpt lat="47.27154" lon="4.93846">
        <ele>553</ele>
        <time>2021-03-21T14:48:25.000Z</time>
      </trkpt>
      <trkpt lat="47.2714" lon="4.93837">
        <ele>554</ele>
        <time>2021-03-21T14:48:34.000Z</time>
      </trkpt>
      <trkpt lat="47.27132" lon="4.93829">
        <ele>555</ele>
        <time>2021-03-21T14:48:42.000Z</time>
      </trkpt>
      <trkpt lat="47.27123" lon="4.9382">
        <ele>558</ele>
        <time>2021-03-21T14:48:51.000Z</time>
      </trkpt>
      <trkpt lat="47.27113" lon="4.93817">
        <ele>556</ele>
        <time>2021-03-21T14:49:00.000Z</time>
      </trkpt>
      <trkpt lat="47.27101" lon="4.93815">
        <ele>554</ele>
        <time>2021-03-21T14:49:09.000Z</time>
      </trkpt>
      <trkpt lat="47.27091" lon="4.93813">
        <ele>555</ele>
        <time>2021-03-21T14:49:15.000Z</time>
      </trkpt>
      <trkpt lat="47.27083" lon="4.93807">
        <ele>556</ele>
        <time>2021-03-21T14:49:23.000Z</time>
      </trkpt>
      <trkpt lat="47.27073" lon="4.93804">
        <ele>557</ele>
        <time>2021-03-21T14:49:31.000Z</time>
      </trkpt>
      <trkpt lat="47.27063" lon="4.93803">
        <ele>561</ele>
        <time>2021-03-21T14:49:37.000Z</time>
      </trkpt>
      <trkpt lat="47.27049" lon="4.93798">
        <ele>558</ele>
        <time>2021-03-21T14:49:46.000Z</time>
      </trkpt>
      <trkpt lat="47.2704" lon="4.93793">
        <ele>558</ele>
        <time>2021-03-21T14:49:55.000Z</time>
      </trkpt>
      <trkpt lat="47.27031" lon="4.93787">
        <ele>560</ele>
        <time>2021-03-21T14:50:06.000Z</time>
      </trkpt>
      <trkpt lat="47.2702" lon="4.93778">
        <ele>559</ele>
        <time>2021-03-21T14:50:15.000Z</time>
      </trkpt>
      <trkpt lat="47.27007" lon="4.93772">
        <ele>558</ele>
        <time>2021-03-21T14:50:23.000Z</time>
      </trkpt>
      <trkpt lat="47.26996" lon="4.93768">
        <ele>561</ele>
        <time>2021-03-21T14:50:32.000Z</time>
      </trkpt>
      <trkpt lat="47.26987" lon="4.93771">
        <ele>564</ele>
        <time>2021-03-21T14:50:37.000Z</time>
      </trkpt>
      <trkpt lat="47.26977" lon="4.93767">
        <ele>564</ele>
        <time>2021-03-21T14:50:50.000Z</time>
      </trkpt>
      <trkpt lat="47.26968" lon="4.93763">
        <ele>564</ele>
        <time>2021-03-21T14:50:56.000Z</time>
      </trkpt>
      <trkpt lat="47.2696" lon="4.93758">
        <ele>562</ele>
        <time>2021-03-21T14:51:04.000Z</time>
      </trkpt>
      <trkpt lat="47.2695" lon="4.93755">
        <ele>562</ele>
        <time>2021-03-21T14:51:10.000Z</time>
      </trkpt>
      <trkpt lat="47.26941" lon="4.93747">
        <ele>562</ele>
        <time>2021-03-21T14:51:19.000Z</time>
      </trkpt>
      <trkpt lat="47.26932" lon="4.9374">
        <ele>564</ele>
        <time>2021-03-21T14:51:30.000Z</time>
      </trkpt>
      <trkpt lat="47.26923" lon="4.93735">
        <ele>560</ele>
        <time>2021-03-21T14:51:38.000Z</time>
      </trkpt>
      <trkpt lat="47.26907" lon="4.93732">
        <ele>560</ele>
        <time>2021-03-21T14:51:47.000Z</time>
      </trkpt>
      <trkpt lat="47.26897" lon="4.93732">
        <ele>560</ele>
        <time>2021-03-21T14:51:56.000Z</time>
      </trkpt>
      <trkpt lat="47.26885" lon="4.93729">
        <ele>560</ele>
        <time>2021-03-21T14:52:05.000Z</time>
      </trkpt>
      <trkpt lat="47.26873" lon="4.93724">
        <ele>561</ele>
        <time>2021-03-21T14:52:14.000Z</time>
      </trkpt>
      <trkpt lat="47.26863" lon="4.93722">
        <ele>564</ele>
        <time>2021-03-21T14:52:20.000Z</time>
      </trkpt>
      <trkpt lat="47.26854" lon="4.93722">
        <ele>563</ele>
        <time>2021-03-21T14:52:27.000Z</time>
      </trkpt>
      <trkpt lat="47.26844" lon="4.9371">
        <ele>565</ele>
        <time>2021-03-21T14:52:36.000Z</time>
      </trkpt>
      <trkpt lat="47.26836" lon="4.93703">
        <ele>568</ele>
        <time>2021-03-21T14:52:44.000Z</time>
      </trkpt>
      <trkpt lat="47.26826" lon="4.93693">
        <ele>560</ele>
        <time>2021-03-21T14:52:57.000Z</time>
      </trkpt>
      <trkpt lat="47.26813" lon="4.93679">
        <ele>562</ele>
        <time>2021-03-21T14:53:15.000Z</time>
      </trkpt>
      <trkpt lat="47.268" lon="4.93663">
        <ele>561</ele>
        <time>2021-03-21T14:53:19.000Z</time>
      </trkpt>
      <trkpt lat="47.26789" lon="4.93653">
        <ele>557</ele>
        <time>2021-03-21T14:53:25.000Z</time>
      </trkpt>
      <trkpt lat="47.26779" lon="4.93644">
        <ele>563</ele>
        <time>2021-03-21T14:53:37.000Z</time>
      </trkpt>
      <trkpt lat="47.2677" lon="4.93636">
        <ele>563</ele>
        <time>2021-03-21T14:53:44.000Z</time>
      </trkpt>
      <trkpt lat="47.2676" lon="4.93629">
        <ele>566</ele>
        <time>2021-03-21T14:53:53.000Z</time>
      </trkpt>
      <trkpt lat="47.26752" lon="4.93618">
        <ele>564</ele>
        <time>2021-03-21T14:54:03.000Z</time>
      </trkpt>
      <trkpt lat="47.26746" lon="4.93606">
        <ele>561</ele>
        <time>2021-03-21T14:54:15.000Z</time>
      </trkpt>
      <trkpt lat="47.26734" lon="4.93595">
        <ele>558</ele>
        <time>2021-03-21T14:54:34.000Z</time>
      </trkpt>
      <trkpt lat="47.26724" lon="4.93584">
        <ele>562</ele>
        <time>2021-03-21T14:54:46.000Z</time>
      </trkpt>
      <trkpt lat="47.26715" lon="4.9357">
        <ele>562</ele>
        <time>2021-03-21T14:54:51.000Z</time>
      </trkpt>
      <trkpt lat="47.26708" lon="4.93559">
        <ele>564</ele>
        <time>2021-03-21T14:54:57.000Z</time>
      </trkpt>
      <trkpt lat="47.26699" lon="4.93556">
        <ele>569</ele>
        <time>2021-03-21T14:55:06.000Z</time>
      </trkpt>
      <trkpt lat="47.26688" lon="4.93548">
        <ele>572</ele>
        <time>2021-03-21T14:55:14.000Z</time>
      </trkpt>
      <trkpt lat="47.26679" lon="4.93545">
        <ele>574</ele>
        <time>2021-03-21T14:55:20.000Z</time>
      </trkpt>
      <trkpt lat="47.26671" lon="4.93536">
        <ele>577</ele>
        <time>2021-03-21T14:55:28.000Z</time>
      </trkpt>
      <trkpt lat="47.26656" lon="4.93518">
        <ele>574</ele>
        <time>2021-03-21T14:55:48.000Z</time>
      </trkpt>
      <trkpt lat="47.26647" lon="4.93504">
        <ele>570</ele>
        <time>2021-03-21T14:55:51.000Z</time>
      </trkpt>
      <trkpt lat="47.26638" lon="4.93492">
        <ele>574</ele>
        <time>2021-03-21T14:55:57.000Z</time>
      </trkpt>
      <trkpt lat="47.26629" lon="4.93483">
        <ele>575</ele>
        <time>2021-03-21T14:56:03.000Z</time>
      </trkpt>
      <trkpt lat="47.26623" lon="4.9347">
        <ele>579</ele>
        <time>2021-03-21T14:56:13.000Z</time>
      </trkpt>
      <trkpt lat="47.26615" lon="4.93461">
        <ele>580</ele>
        <time>2021-03-21T14:56:19.000Z</time>
      </trkpt>
      <trkpt lat="47.26599" lon="4.93459">
        <ele>587</ele>
        <time>2021-03-21T14:56:45.000Z</time>
      </trkpt>
      <trkpt lat="47.26593" lon="4.93447">
        <ele>579</ele>
        <time>2021-03-21T14:56:56.000Z</time>
      </trkpt>
      <trkpt lat="47.26584" lon="4.93437">
        <ele>579</ele>
        <time>2021-03-21T14:57:01.000Z</time>
      </trkpt>
      <trkpt lat="47.26575" lon="4.93425">
        <ele>585</ele>
        <time>2021-03-21T14:57:10.000Z</time>
      </trkpt>
      <trkpt lat="47.26568" lon="4.93414">
        <ele>585</ele>
        <time>2021-03-21T14:57:16.000Z</time>
      </trkpt>
      <trkpt lat="47.26559" lon="4.93404">
        <ele>589</ele>
        <time>2021-03-21T14:57:22.000Z</time>
      </trkpt>
      <trkpt lat="47.2655" lon="4.93397">
        <ele>588</ele>
        <time>2021-03-21T14:57:39.000Z</time>
      </trkpt>
      <trkpt lat="47.26543" lon="4.93388">
        <ele>587</ele>
        <time>2021-03-21T14:57:42.000Z</time>
      </trkpt>
      <trkpt lat="47.26527" lon="4.93376">
        <ele>578</ele>
        <time>2021-03-21T14:58:00.000Z</time>
      </trkpt>
      <trkpt lat="47.26517" lon="4.93369">
        <ele>588</ele>
        <time>2021-03-21T14:58:06.000Z</time>
      </trkpt>
      <trkpt lat="47.26509" lon="4.93361">
        <ele>588</ele>
        <time>2021-03-21T14:58:10.000Z</time>
      </trkpt>
      <trkpt lat="47.265" lon="4.93351">
        <ele>600</ele>
        <time>2021-03-21T14:58:19.000Z</time>
      </trkpt>
      <trkpt lat="47.26494" lon="4.93338">
        <ele>598</ele>
        <time>2021-03-21T14:58:32.000Z</time>
      </trkpt>
      <trkpt lat="47.26486" lon="4.9333">
        <ele>599</ele>
        <time>2021-03-21T14:58:40.000Z</time>
      </trkpt>
      <trkpt lat="47.26477" lon="4.93322">
        <ele>599</ele>
        <time>2021-03-21T14:58:45.000Z</time>
      </trkpt>
      <trkpt lat="47.26466" lon="4.93314">
        <ele>601</ele>
        <time>2021-03-21T14:58:56.000Z</time>
      </trkpt>
      <trkpt lat="47.26458" lon="4.93307">
        <ele>602</ele>
        <time>2021-03-21T14:59:03.000Z</time>
      </trkpt>
      <trkpt lat="47.26453" lon="4.93295">
        <ele>600</ele>
        <time>2021-03-21T14:59:17.000Z</time>
      </trkpt>
      <trkpt lat="47.26444" lon="4.93284">
        <ele>599</ele>
        <time>2021-03-21T14:59:25.000Z</time>
      </trkpt>
      <trkpt lat="47.26437" lon="4.93275">
        <ele>601</ele>
        <time>2021-03-21T14:59:28.000Z</time>
      </trkpt>
      <trkpt lat="47.26425" lon="4.93262">
        <ele>600</ele>
        <time>2021-03-21T14:59:33.000Z</time>
      </trkpt>
      <trkpt lat="47.26411" lon="4.93251">
        <ele>600</ele>
        <time>2021-03-21T14:59:54.000Z</time>
      </trkpt>
      <trkpt lat="47.264" lon="4.93244">
        <ele>593</ele>
        <time>2021-03-21T15:00:00.000Z</time>
      </trkpt>
      <trkpt lat="47.26394" lon="4.93232">
        <ele>589</ele>
        <time>2021-03-21T15:00:09.000Z</time>
      </trkpt>
      <trkpt lat="47.26383" lon="4.93222">
        <ele>584</ele>
        <time>2021-03-21T15:00:18.000Z</time>
      </trkpt>
      <trkpt lat="47.26381" lon="4.93209">
        <ele>582</ele>
        <time>2021-03-21T15:00:28.000Z</time>
      </trkpt>
      <trkpt lat="47.26376" lon="4.93198">
        <ele>585</ele>
        <time>2021-03-21T15:00:34.000Z</time>
      </trkpt>
      <trkpt lat="47.26366" lon="4.93192">
        <ele>587</ele>
        <time>2021-03-21T15:00:42.000Z</time>
      </trkpt>
      <trkpt lat="47.26355" lon="4.93187">
        <ele>590</ele>
        <time>2021-03-21T15:00:53.000Z</time>
      </trkpt>
      <trkpt lat="47.26346" lon="4.93182">
        <ele>591</ele>
        <time>2021-03-21T15:00:59.000Z</time>
      </trkpt>
      <trkpt lat="47.26336" lon="4.93182">
        <ele>588</ele>
        <time>2021-03-21T15:01:07.000Z</time>
      </trkpt>
      <trkpt lat="47.26335" lon="4.93166">
        <ele>585</ele>
        <time>2021-03-21T15:01:25.000Z</time>
      </trkpt>
      <trkpt lat="47.26336" lon="4.93153">
        <ele>582</ele>
        <time>2021-03-21T15:01:37.000Z</time>
      </trkpt>
      <trkpt lat="47.26342" lon="4.93141">
        <ele>579</ele>
        <time>2021-03-21T15:01:49.000Z</time>
      </trkpt>
      <trkpt lat="47.26332" lon="4.93125">
        <ele>581</ele>
        <time>2021-03-21T15:02:04.000Z</time>
      </trkpt>
      <trkpt lat="47.26325" lon="4.93116">
        <ele>583</ele>
        <time>2021-03-21T15:02:09.000Z</time>
      </trkpt>
      <trkpt lat="47.26323" lon="4.93103">
        <ele>580</ele>
        <time>2021-03-21T15:02:18.000Z</time>
      </trkpt>
      <trkpt lat="47.26317" lon="4.9309">
        <ele>582</ele>
        <time>2021-03-21T15:02:28.000Z</time>
      </trkpt>
      <trkpt lat="47.26307" lon="4.93078">
        <ele>581</ele>
        <time>2021-03-21T15:02:34.000Z</time>
      </trkpt>
      <trkpt lat="47.26299" lon="4.93067">
        <ele>576</ele>
        <time>2021-03-21T15:02:40.000Z</time>
      </trkpt>
      <trkpt lat="47.26291" lon="4.93051">
        <ele>575</ele>
        <time>2021-03-21T15:02:50.000Z</time>
      </trkpt>
      <trkpt lat="47.2629" lon="4.93037">
        <ele>582</ele>
        <time>2021-03-21T15:03:07.000Z</time>
      </trkpt>
      <trkpt lat="47.26283" lon="4.93027">
        <ele>580</ele>
        <time>2021-03-21T15:03:13.000Z</time>
      </trkpt>
      <trkpt lat="47.26276" lon="4.93018">
        <ele>579</ele>
        <time>2021-03-21T15:03:17.000Z</time>
      </trkpt>
      <trkpt lat="47.26267" lon="4.93006">
        <ele>579</ele>
        <time>2021-03-21T15:03:22.000Z</time>
      </trkpt>
      <trkpt lat="47.26258" lon="4.92991">
        <ele>583</ele>
        <time>2021-03-21T15:03:33.000Z</time>
      </trkpt>
      <trkpt lat="47.26251" lon="4.92979">
        <ele>587</ele>
        <time>2021-03-21T15:03:45.000Z</time>
      </trkpt>
      <trkpt lat="47.26243" lon="4.92968">
        <ele>549</ele>
        <time>2021-03-21T15:03:51.000Z</time>
      </trkpt>
      <trkpt lat="47.26235" lon="4.92959">
        <ele>570</ele>
        <time>2021-03-21T15:03:57.000Z</time>
      </trkpt>
      <trkpt lat="47.26235" lon="4.92945">
        <ele>585</ele>
        <time>2021-03-21T15:04:09.000Z</time>
      </trkpt>
      <trkpt lat="47.26228" lon="4.92933">
        <ele>582</ele>
        <time>2021-03-21T15:04:15.000Z</time>
      </trkpt>
      <trkpt lat="47.26216" lon="4.92927">
        <ele>548</ele>
        <time>2021-03-21T15:04:21.000Z</time>
      </trkpt>
      <trkpt lat="47.26207" lon="4.92918">
        <ele>565</ele>
        <time>2021-03-21T15:04:25.000Z</time>
      </trkpt>
      <trkpt lat="47.26203" lon="4.92904">
        <ele>578</ele>
        <time>2021-03-21T15:04:34.000Z</time>
      </trkpt>
      <trkpt lat="47.26197" lon="4.92887">
        <ele>586</ele>
        <time>2021-03-21T15:04:48.000Z</time>
      </trkpt>
      <trkpt lat="47.26192" lon="4.92875">
        <ele>588</ele>
        <time>2021-03-21T15:04:54.000Z</time>
      </trkpt>
      <trkpt lat="47.26187" lon="4.92861">
        <ele>587</ele>
        <time>2021-03-21T15:05:01.000Z</time>
      </trkpt>
      <trkpt lat="47.26181" lon="4.92849">
        <ele>584</ele>
        <time>2021-03-21T15:05:13.000Z</time>
      </trkpt>
      <trkpt lat="47.26177" lon="4.92837">
        <ele>583</ele>
        <time>2021-03-21T15:05:22.000Z</time>
      </trkpt>
      <trkpt lat="47.26182" lon="4.92826">
        <ele>575</ele>
        <time>2021-03-21T15:05:36.000Z</time>
      </trkpt>
      <trkpt lat="47.26183" lon="4.92806">
        <ele>567</ele>
        <time>2021-03-21T15:05:57.000Z</time>
      </trkpt>
      <trkpt lat="47.26184" lon="4.92789">
        <ele>566</ele>
        <time>2021-03-21T15:06:03.000Z</time>
      </trkpt>
      <trkpt lat="47.26184" lon="4.92769">
        <ele>567</ele>
        <time>2021-03-21T15:06:12.000Z</time>
      </trkpt>
      <trkpt lat="47.26181" lon="4.9275">
        <ele>571</ele>
        <time>2021-03-21T15:06:18.000Z</time>
      </trkpt>
      <trkpt lat="47.26181" lon="4.92734">
        <ele>579</ele>
        <time>2021-03-21T15:06:30.000Z</time>
      </trkpt>
      <trkpt lat="47.2618" lon="4.92718">
        <ele>578</ele>
        <time>2021-03-21T15:06:39.000Z</time>
      </trkpt>
      <trkpt lat="47.26181" lon="4.92702">
        <ele>577</ele>
        <time>2021-03-21T15:06:48.000Z</time>
      </trkpt>
      <trkpt lat="47.26182" lon="4.92686">
        <ele>574</ele>
        <time>2021-03-21T15:07:00.000Z</time>
      </trkpt>
      <trkpt lat="47.26183" lon="4.92672">
        <ele>579</ele>
        <time>2021-03-21T15:07:12.000Z</time>
      </trkpt>
      <trkpt lat="47.2618" lon="4.92658">
        <ele>580</ele>
        <time>2021-03-21T15:07:19.000Z</time>
      </trkpt>
      <trkpt lat="47.26183" lon="4.92643">
        <ele>575</ele>
        <time>2021-03-21T15:07:30.000Z</time>
      </trkpt>
      <trkpt lat="47.26183" lon="4.92625">
        <ele>577</ele>
        <time>2021-03-21T15:07:39.000Z</time>
      </trkpt>
      <trkpt lat="47.26183" lon="4.92608">
        <ele>578</ele>
        <time>2021-03-21T15:07:48.000Z</time>
      </trkpt>
      <trkpt lat="47.26184" lon="4.92593">
        <ele>572</ele>
        <time>2021-03-21T15:08:00.000Z</time>
      </trkpt>
      <trkpt lat="47.26182" lon="4.92578">
        <ele>571</ele>
        <time>2021-03-21T15:08:08.000Z</time>
      </trkpt>
      <trkpt lat="47.26172" lon="4.92578">
        <ele>568</ele>
        <time>2021-03-21T15:08:51.000Z</time>
      </trkpt>
      <trkpt lat="47.26163" lon="4.92577">
        <ele>573</ele>
        <time>2021-03-21T15:09:01.000Z</time>
      </trkpt>
      <trkpt lat="47.26149" lon="4.92577">
        <ele>573</ele>
        <time>2021-03-21T15:09:20.000Z</time>
      </trkpt>
      <trkpt lat="47.26139" lon="4.92575">
        <ele>575</ele>
        <time>2021-03-21T15:09:24.000Z</time>
      </trkpt>
      <trkpt lat="47.26127" lon="4.92573">
        <ele>577</ele>
        <time>2021-03-21T15:09:30.000Z</time>
      </trkpt>
      <trkpt lat="47.26118" lon="4.92568">
        <ele>583</ele>
        <time>2021-03-21T15:09:37.000Z</time>
      </trkpt>
      <trkpt lat="47.26108" lon="4.9257">
        <ele>582</ele>
        <time>2021-03-21T15:09:44.000Z</time>
      </trkpt>
      <trkpt lat="47.26094" lon="4.92576">
        <ele>580</ele>
        <time>2021-03-21T15:09:53.000Z</time>
      </trkpt>
      <trkpt lat="47.26083" lon="4.92582">
        <ele>585</ele>
        <time>2021-03-21T15:10:02.000Z</time>
      </trkpt>
      <trkpt lat="47.26072" lon="4.92587">
        <ele>589</ele>
        <time>2021-03-21T15:10:30.000Z</time>
      </trkpt>
      <trkpt lat="47.26063" lon="4.92591">
        <ele>591</ele>
        <time>2021-03-21T15:10:38.000Z</time>
      </trkpt>
      <trkpt lat="47.26049" lon="4.92594">
        <ele>592</ele>
        <time>2021-03-21T15:10:43.000Z</time>
      </trkpt>
      <trkpt lat="47.26037" lon="4.92594">
        <ele>592</ele>
        <time>2021-03-21T15:10:49.000Z</time>
      </trkpt>
      <trkpt lat="47.26023" lon="4.9259">
        <ele>591</ele>
        <time>2021-03-21T15:10:59.000Z</time>
      </trkpt>
      <trkpt lat="47.26014" lon="4.92588">
        <ele>590</ele>
        <time>2021-03-21T15:11:05.000Z</time>
      </trkpt>
      <trkpt lat="47.26005" lon="4.92588">
        <ele>593</ele>
        <time>2021-03-21T15:11:17.000Z</time>
      </trkpt>
      <trkpt lat="47.25994" lon="4.92589">
        <ele>592</ele>
        <time>2021-03-21T15:11:24.000Z</time>
      </trkpt>
      <trkpt lat="47.25986" lon="4.92582">
        <ele>590</ele>
        <time>2021-03-21T15:11:39.000Z</time>
      </trkpt>
      <trkpt lat="47.25977" lon="4.92579">
        <ele>546</ele>
        <time>2021-03-21T15:12:01.000Z</time>
      </trkpt>
      <trkpt lat="47.25967" lon="4.9258">
        <ele>587</ele>
        <time>2021-03-21T15:12:19.000Z</time>
      </trkpt>
      <trkpt lat="47.25957" lon="4.92582">
        <ele>585</ele>
        <time>2021-03-21T15:12:25.000Z</time>
      </trkpt>
      <trkpt lat="47.25947" lon="4.92579">
        <ele>590</ele>
        <time>2021-03-21T15:12:31.000Z</time>
      </trkpt>
      <trkpt lat="47.25938" lon="4.92579">
        <ele>591</ele>
        <time>2021-03-21T15:12:37.000Z</time>
      </trkpt>
      <trkpt lat="47.25929" lon="4.92581">
        <ele>597</ele>
        <time>2021-03-21T15:12:43.000Z</time>
      </trkpt>
      <trkpt lat="47.25919" lon="4.92576">
        <ele>595</ele>
        <time>2021-03-21T15:12:49.000Z</time>
      </trkpt>
      <trkpt lat="47.25911" lon="4.92559">
        <ele>592</ele>
        <time>2021-03-21T15:13:09.000Z</time>
      </trkpt>
      <trkpt lat="47.25902" lon="4.92539">
        <ele>589</ele>
        <time>2021-03-21T15:13:16.000Z</time>
      </trkpt>
      <trkpt lat="47.25901" lon="4.92523">
        <ele>582</ele>
        <time>2021-03-21T15:13:41.000Z</time>
      </trkpt>
      <trkpt lat="47.25902" lon="4.92508">
        <ele>577</ele>
        <time>2021-03-21T15:13:47.000Z</time>
      </trkpt>
      <trkpt lat="47.25902" lon="4.9249">
        <ele>575</ele>
        <time>2021-03-21T15:13:56.000Z</time>
      </trkpt>
      <trkpt lat="47.25902" lon="4.92475">
        <ele>566</ele>
        <time>2021-03-21T15:14:05.000Z</time>
      </trkpt>
      <trkpt lat="47.25901" lon="4.9246">
        <ele>564</ele>
        <time>2021-03-21T15:14:22.000Z</time>
      </trkpt>
      <trkpt lat="47.25903" lon="4.92445">
        <ele>549</ele>
        <time>2021-03-21T15:14:40.000Z</time>
      </trkpt>
      <trkpt lat="47.25903" lon="4.92432">
        <ele>555</ele>
        <time>2021-03-21T15:14:44.000Z</time>
      </trkpt>
      <trkpt lat="47.25906" lon="4.92415">
        <ele>562</ele>
        <time>2021-03-21T15:14:51.000Z</time>
      </trkpt>
      <trkpt lat="47.25906" lon="4.92401">
        <ele>565</ele>
        <time>2021-03-21T15:15:00.000Z</time>
      </trkpt>
      <trkpt lat="47.25907" lon="4.92385">
        <ele>555</ele>
        <time>2021-03-21T15:15:09.000Z</time>
      </trkpt>
      <trkpt lat="47.2591" lon="4.9237">
        <ele>559</ele>
        <time>2021-03-21T15:15:17.000Z</time>
      </trkpt>
      <trkpt lat="47.25914" lon="4.92357">
        <ele>560</ele>
        <time>2021-03-21T15:15:23.000Z</time>
      </trkpt>
      <trkpt lat="47.25917" lon="4.92341">
        <ele>558</ele>
        <time>2021-03-21T15:15:32.000Z</time>
      </trkpt>
      <trkpt lat="47.25923" lon="4.92328">
        <ele>559</ele>
        <time>2021-03-21T15:15:41.000Z</time>
      </trkpt>
      <trkpt lat="47.25921" lon="4.92308">
        <ele>563</ele>
        <time>2021-03-21T15:15:47.000Z</time>
      </trkpt>
      <trkpt lat="47.25926" lon="4.92288">
        <ele>559</ele>
        <time>2021-03-21T15:15:53.000Z</time>
      </trkpt>
      <trkpt lat="47.25931" lon="4.92277">
        <ele>555</ele>
        <time>2021-03-21T15:16:02.000Z</time>
      </trkpt>
      <trkpt lat="47.25933" lon="4.92264">
        <ele>560</ele>
        <time>2021-03-21T15:16:09.000Z</time>
      </trkpt>
      <trkpt lat="47.25934" lon="4.92248">
        <ele>560</ele>
        <time>2021-03-21T15:16:15.000Z</time>
      </trkpt>
      <trkpt lat="47.25938" lon="4.92236">
        <ele>556</ele>
        <time>2021-03-21T15:16:24.000Z</time>
      </trkpt>
      <trkpt lat="47.25944" lon="4.92223">
        <ele>556</ele>
        <time>2021-03-21T15:16:30.000Z</time>
      </trkpt>
      <trkpt lat="47.2595" lon="4.92213">
        <ele>556</ele>
        <time>2021-03-21T15:16:39.000Z</time>
      </trkpt>
      <trkpt lat="47.25956" lon="4.92201">
        <ele>555</ele>
        <time>2021-03-21T15:16:49.000Z</time>
      </trkpt>
      <trkpt lat="47.25963" lon="4.92192">
        <ele>556</ele>
        <time>2021-03-21T15:17:01.000Z</time>
      </trkpt>
      <trkpt lat="47.25968" lon="4.92179">
        <ele>555</ele>
        <time>2021-03-21T15:17:10.000Z</time>
      </trkpt>
      <trkpt lat="47.25975" lon="4.9217">
        <ele>549</ele>
        <time>2021-03-21T15:17:20.000Z</time>
      </trkpt>
      <trkpt lat="47.2598" lon="4.92159">
        <ele>556</ele>
        <time>2021-03-21T15:17:29.000Z</time>
      </trkpt>
      <trkpt lat="47.25989" lon="4.92155">
        <ele>553</ele>
        <time>2021-03-21T15:17:39.000Z</time>
      </trkpt>
      <trkpt lat="47.25999" lon="4.9215">
        <ele>556</ele>
        <time>2021-03-21T15:17:48.000Z</time>
      </trkpt>
      <trkpt lat="47.26006" lon="4.92139">
        <ele>555</ele>
        <time>2021-03-21T15:17:54.000Z</time>
      </trkpt>
      <trkpt lat="47.26003" lon="4.92126">
        <ele>556</ele>
        <time>2021-03-21T15:18:00.000Z</time>
      </trkpt>
      <trkpt lat="47.25994" lon="4.92122">
        <ele>556</ele>
        <time>2021-03-21T15:18:07.000Z</time>
      </trkpt>
      <trkpt lat="47.25985" lon="4.92125">
        <ele>558</ele>
        <time>2021-03-21T15:18:20.000Z</time>
      </trkpt>
      <trkpt lat="47.25976" lon="4.92123">
        <ele>567</ele>
        <time>2021-03-21T15:18:45.000Z</time>
      </trkpt>
      <trkpt lat="47.25967" lon="4.92119">
        <ele>566</ele>
        <time>2021-03-21T15:18:53.000Z</time>
      </trkpt>
      <trkpt lat="47.25956" lon="4.92122">
        <ele>573</ele>
        <time>2021-03-21T15:19:00.000Z</time>
      </trkpt>
      <trkpt lat="47.25947" lon="4.92115">
        <ele>569</ele>
        <time>2021-03-21T15:19:07.000Z</time>
      </trkpt>
      <trkpt lat="47.25938" lon="4.92115">
        <ele>568</ele>
        <time>2021-03-21T15:19:15.000Z</time>
      </trkpt>
      <trkpt lat="47.2593" lon="4.9211">
        <ele>566</ele>
        <time>2021-03-21T15:19:24.000Z</time>
      </trkpt>
      <trkpt lat="47.2592" lon="4.92107">
        <ele>557</ele>
        <time>2021-03-21T15:19:44.000Z</time>
      </trkpt>
      <trkpt lat="47.2591" lon="4.92104">
        <ele>567</ele>
        <time>2021-03-21T15:19:49.000Z</time>
      </trkpt>
      <trkpt lat="47.259" lon="4.92104">
        <ele>570</ele>
        <time>2021-03-21T15:19:56.000Z</time>
      </trkpt>
      <trkpt lat="47.25891" lon="4.92099">
        <ele>571</ele>
        <time>2021-03-21T15:20:03.000Z</time>
      </trkpt>
      <trkpt lat="47.25882" lon="4.92091">
        <ele>574</ele>
        <time>2021-03-21T15:20:10.000Z</time>
      </trkpt>
      <trkpt lat="47.25873" lon="4.92089">
        <ele>578</ele>
        <time>2021-03-21T15:20:17.000Z</time>
      </trkpt>
      <trkpt lat="47.25864" lon="4.9208">
        <ele>583</ele>
        <time>2021-03-21T15:20:26.000Z</time>
      </trkpt>
      <trkpt lat="47.25854" lon="4.92074">
        <ele>582</ele>
        <time>2021-03-21T15:20:30.000Z</time>
      </trkpt>
      <trkpt lat="47.25845" lon="4.92067">
        <ele>575</ele>
        <time>2021-03-21T15:20:34.000Z</time>
      </trkpt>
      <trkpt lat="47.25844" lon="4.92053">
        <ele>580</ele>
        <time>2021-03-21T15:20:47.000Z</time>
      </trkpt>
      <trkpt lat="47.25836" lon="4.92045">
        <ele>581</ele>
        <time>2021-03-21T15:20:55.000Z</time>
      </trkpt>
      <trkpt lat="47.25827" lon="4.92044">
        <ele>581</ele>
        <time>2021-03-21T15:21:01.000Z</time>
      </trkpt>
      <trkpt lat="47.25818" lon="4.92037">
        <ele>581</ele>
        <time>2021-03-21T15:21:11.000Z</time>
      </trkpt>
      <trkpt lat="47.25811" lon="4.92027">
        <ele>569</ele>
        <time>2021-03-21T15:21:23.000Z</time>
      </trkpt>
      <trkpt lat="47.25805" lon="4.92016">
        <ele>569</ele>
        <time>2021-03-21T15:21:32.000Z</time>
      </trkpt>
      <trkpt lat="47.25796" lon="4.92014">
        <ele>576</ele>
        <time>2021-03-21T15:21:46.000Z</time>
      </trkpt>
      <trkpt lat="47.25787" lon="4.92009">
        <ele>577</ele>
        <time>2021-03-21T15:21:52.000Z</time>
      </trkpt>
      <trkpt lat="47.25777" lon="4.92002">
        <ele>570</ele>
        <time>2021-03-21T15:22:10.000Z</time>
      </trkpt>
      <trkpt lat="47.25767" lon="4.91986">
        <ele>570</ele>
        <time>2021-03-21T15:22:16.000Z</time>
      </trkpt>
      <trkpt lat="47.25754" lon="4.91985">
        <ele>564</ele>
        <time>2021-03-21T15:22:22.000Z</time>
      </trkpt>
      <trkpt lat="47.25746" lon="4.9197">
        <ele>561</ele>
        <time>2021-03-21T15:22:34.000Z</time>
      </trkpt>
      <trkpt lat="47.25737" lon="4.91966">
        <ele>561</ele>
        <time>2021-03-21T15:22:43.000Z</time>
      </trkpt>
      <trkpt lat="47.25729" lon="4.91955">
        <ele>557</ele>
        <time>2021-03-21T15:22:55.000Z</time>
      </trkpt>
      <trkpt lat="47.2572" lon="4.91952">
        <ele>559</ele>
        <time>2021-03-21T15:23:06.000Z</time>
      </trkpt>
      <trkpt lat="47.2571" lon="4.91945">
        <ele>562</ele>
        <time>2021-03-21T15:23:14.000Z</time>
      </trkpt>
      <trkpt lat="47.25701" lon="4.9194">
        <ele>562</ele>
        <time>2021-03-21T15:23:22.000Z</time>
      </trkpt>
      <trkpt lat="47.25693" lon="4.91933">
        <ele>566</ele>
        <time>2021-03-21T15:23:30.000Z</time>
      </trkpt>
      <trkpt lat="47.25684" lon="4.91929">
        <ele>564</ele>
        <time>2021-03-21T15:23:39.000Z</time>
      </trkpt>
      <trkpt lat="47.25675" lon="4.91926">
        <ele>567</ele>
        <time>2021-03-21T15:24:12.000Z</time>
      </trkpt>
      <trkpt lat="47.25665" lon="4.91924">
        <ele>565</ele>
        <time>2021-03-21T15:24:16.000Z</time>
      </trkpt>
      <trkpt lat="47.25651" lon="4.91914">
        <ele>561</ele>
        <time>2021-03-21T15:24:21.000Z</time>
      </trkpt>
      <trkpt lat="47.25651" lon="4.91897">
        <ele>560</ele>
        <time>2021-03-21T15:24:30.000Z</time>
      </trkpt>
      <trkpt lat="47.25655" lon="4.91881">
        <ele>559</ele>
        <time>2021-03-21T15:24:36.000Z</time>
      </trkpt>
      <trkpt lat="47.25661" lon="4.91869">
        <ele>559</ele>
        <time>2021-03-21T15:24:45.000Z</time>
      </trkpt>
      <trkpt lat="47.25664" lon="4.91852">
        <ele>556</ele>
        <time>2021-03-21T15:25:00.000Z</time>
      </trkpt>
      <trkpt lat="47.25669" lon="4.91838">
        <ele>553</ele>
        <time>2021-03-21T15:25:09.000Z</time>
      </trkpt>
      <trkpt lat="47.25677" lon="4.91831">
        <ele>562</ele>
        <time>2021-03-21T15:25:23.000Z</time>
      </trkpt>
      <trkpt lat="47.25684" lon="4.91819">
        <ele>561</ele>
        <time>2021-03-21T15:25:30.000Z</time>
      </trkpt>
      <trkpt lat="47.25692" lon="4.91809">
        <ele>561</ele>
        <time>2021-03-21T15:25:39.000Z</time>
      </trkpt>
      <trkpt lat="47.25693" lon="4.91794">
        <ele>564</ele>
        <time>2021-03-21T15:25:45.000Z</time>
      </trkpt>
      <trkpt lat="47.25693" lon="4.91776">
        <ele>564</ele>
        <time>2021-03-21T15:25:51.000Z</time>
      </trkpt>
      <trkpt lat="47.25694" lon="4.91762">
        <ele>562</ele>
        <time>2021-03-21T15:26:03.000Z</time>
      </trkpt>
      <trkpt lat="47.2568" lon="4.91765">
        <ele>559</ele>
        <time>2021-03-21T15:27:12.000Z</time>
      </trkpt>
      <trkpt lat="47.25671" lon="4.91758">
        <ele>562</ele>
        <time>2021-03-21T15:27:21.000Z</time>
      </trkpt>
      <trkpt lat="47.25667" lon="4.91744">
        <ele>567</ele>
        <time>2021-03-21T15:27:29.000Z</time>
      </trkpt>
      <trkpt lat="47.25659" lon="4.91734">
        <ele>572</ele>
        <time>2021-03-21T15:27:34.000Z</time>
      </trkpt>
      <trkpt lat="47.25653" lon="4.91721">
        <ele>569</ele>
        <time>2021-03-21T15:27:38.000Z</time>
      </trkpt>
      <trkpt lat="47.25647" lon="4.91708">
        <ele>571</ele>
        <time>2021-03-21T15:27:51.000Z</time>
      </trkpt>
      <trkpt lat="47.25634" lon="4.91695">
        <ele>567</ele>
        <time>2021-03-21T15:28:22.000Z</time>
      </trkpt>
      <trkpt lat="47.25628" lon="4.91685">
        <ele>566</ele>
        <time>2021-03-21T15:28:25.000Z</time>
      </trkpt>
      <trkpt lat="47.25618" lon="4.91645">
        <ele>558</ele>
        <time>2021-03-21T15:28:38.000Z</time>
      </trkpt>
      <trkpt lat="47.25612" lon="4.91634">
        <ele>566</ele>
        <time>2021-03-21T15:28:46.000Z</time>
      </trkpt>
      <trkpt lat="47.25607" lon="4.91621">
        <ele>569</ele>
        <time>2021-03-21T15:28:55.000Z</time>
      </trkpt>
      <trkpt lat="47.25607" lon="4.91607">
        <ele>570</ele>
        <time>2021-03-21T15:29:04.000Z</time>
      </trkpt>
      <trkpt lat="47.25603" lon="4.91594">
        <ele>570</ele>
        <time>2021-03-21T15:29:13.000Z</time>
      </trkpt>
      <trkpt lat="47.25595" lon="4.91582">
        <ele>565</ele>
        <time>2021-03-21T15:29:22.000Z</time>
      </trkpt>
      <trkpt lat="47.25598" lon="4.91569">
        <ele>566</ele>
        <time>2021-03-21T15:29:30.000Z</time>
      </trkpt>
      <trkpt lat="47.2559" lon="4.91558">
        <ele>564</ele>
        <time>2021-03-21T15:29:39.000Z</time>
      </trkpt>
      <trkpt lat="47.25587" lon="4.91546">
        <ele>561</ele>
        <time>2021-03-21T15:29:45.000Z</time>
      </trkpt>
      <trkpt lat="47.25583" lon="4.9153">
        <ele>559</ele>
        <time>2021-03-21T15:29:54.000Z</time>
      </trkpt>
      <trkpt lat="47.25578" lon="4.91514">
        <ele>558</ele>
        <time>2021-03-21T15:30:02.000Z</time>
      </trkpt>
      <trkpt lat="47.25579" lon="4.915">
        <ele>546</ele>
        <time>2021-03-21T15:30:19.000Z</time>
      </trkpt>
      <trkpt lat="47.25579" lon="4.9148">
        <ele>554</ele>
        <time>2021-03-21T15:30:28.000Z</time>
      </trkpt>
      <trkpt lat="47.25569" lon="4.91466">
        <ele>560</ele>
        <time>2021-03-21T15:30:46.000Z</time>
      </trkpt>
      <trkpt lat="47.25548" lon="4.91451">
        <ele>528</ele>
        <time>2021-03-21T15:30:49.000Z</time>
      </trkpt>
      <trkpt lat="47.25531" lon="4.9144">
        <ele>543</ele>
        <time>2021-03-21T15:30:52.000Z</time>
      </trkpt>
      <trkpt lat="47.25529" lon="4.91424">
        <ele>563</ele>
        <time>2021-03-21T15:31:04.000Z</time>
      </trkpt>
      <trkpt lat="47.25519" lon="4.91421">
        <ele>572</ele>
        <time>2021-03-21T15:31:13.000Z</time>
      </trkpt>
      <trkpt lat="47.25507" lon="4.9142">
        <ele>575</ele>
        <time>2021-03-21T15:31:19.000Z</time>
      </trkpt>
      <trkpt lat="47.25494" lon="4.91426">
        <ele>574</ele>
        <time>2021-03-21T15:31:28.000Z</time>
      </trkpt>
      <trkpt lat="47.25493" lon="4.91406">
        <ele>548</ele>
        <time>2021-03-21T15:31:33.000Z</time>
      </trkpt>
      <trkpt lat="47.25495" lon="4.91393">
        <ele>556</ele>
        <time>2021-03-21T15:31:37.000Z</time>
      </trkpt>
      <trkpt lat="47.2549" lon="4.91381">
        <ele>562</ele>
        <time>2021-03-21T15:31:41.000Z</time>
      </trkpt>
      <trkpt lat="47.25481" lon="4.91382">
        <ele>558</ele>
        <time>2021-03-21T15:31:50.000Z</time>
      </trkpt>
      <trkpt lat="47.25473" lon="4.91391">
        <ele>557</ele>
        <time>2021-03-21T15:31:59.000Z</time>
      </trkpt>
      <trkpt lat="47.25464" lon="4.91385">
        <ele>560</ele>
        <time>2021-03-21T15:32:04.000Z</time>
      </trkpt>
      <trkpt lat="47.25457" lon="4.91373">
        <ele>559</ele>
        <time>2021-03-21T15:32:09.000Z</time>
      </trkpt>
      <trkpt lat="47.25458" lon="4.9136">
        <ele>560</ele>
        <time>2021-03-21T15:32:15.000Z</time>
      </trkpt>
      <trkpt lat="47.25464" lon="4.91348">
        <ele>557</ele>
        <time>2021-03-21T15:32:21.000Z</time>
      </trkpt>
      <trkpt lat="47.25465" lon="4.91334">
        <ele>552</ele>
        <time>2021-03-21T15:32:30.000Z</time>
      </trkpt>
      <trkpt lat="47.25471" lon="4.91322">
        <ele>553</ele>
        <time>2021-03-21T15:32:39.000Z</time>
      </trkpt>
      <trkpt lat="47.25477" lon="4.91305">
        <ele>552</ele>
        <time>2021-03-21T15:32:48.000Z</time>
      </trkpt>
      <trkpt lat="47.25479" lon="4.91291">
        <ele>554</ele>
        <time>2021-03-21T15:32:54.000Z</time>
      </trkpt>
      <trkpt lat="47.25485" lon="4.91279">
        <ele>553</ele>
        <time>2021-03-21T15:33:01.000Z</time>
      </trkpt>
      <trkpt lat="47.25495" lon="4.9127">
        <ele>553</ele>
        <time>2021-03-21T15:33:07.000Z</time>
      </trkpt>
      <trkpt lat="47.25497" lon="4.91257">
        <ele>551</ele>
        <time>2021-03-21T15:33:13.000Z</time>
      </trkpt>
      <trkpt lat="47.255" lon="4.91239">
        <ele>552</ele>
        <time>2021-03-21T15:33:21.000Z</time>
      </trkpt>
      <trkpt lat="47.2551" lon="4.9124">
        <ele>545</ele>
        <time>2021-03-21T15:33:31.000Z</time>
      </trkpt>
      <trkpt lat="47.25515" lon="4.91224">
        <ele>546</ele>
        <time>2021-03-21T15:33:40.000Z</time>
      </trkpt>
      <trkpt lat="47.25515" lon="4.91208">
        <ele>548</ele>
        <time>2021-03-21T15:33:46.000Z</time>
      </trkpt>
      <trkpt lat="47.25517" lon="4.91193">
        <ele>549</ele>
        <time>2021-03-21T15:33:53.000Z</time>
      </trkpt>
      <trkpt lat="47.25518" lon="4.9118">
        <ele>550</ele>
        <time>2021-03-21T15:33:58.000Z</time>
      </trkpt>
      <trkpt lat="47.25522" lon="4.91165">
        <ele>549</ele>
        <time>2021-03-21T15:34:07.000Z</time>
      </trkpt>
      <trkpt lat="47.25526" lon="4.91152">
        <ele>548</ele>
        <time>2021-03-21T15:34:13.000Z</time>
      </trkpt>
      <trkpt lat="47.25526" lon="4.91138">
        <ele>551</ele>
        <time>2021-03-21T15:34:19.000Z</time>
      </trkpt>
      <trkpt lat="47.25529" lon="4.91119">
        <ele>555</ele>
        <time>2021-03-21T15:34:28.000Z</time>
      </trkpt>
      <trkpt lat="47.25536" lon="4.911">
        <ele>551</ele>
        <time>2021-03-21T15:34:40.000Z</time>
      </trkpt>
      <trkpt lat="47.25536" lon="4.91086">
        <ele>550</ele>
        <time>2021-03-21T15:34:49.000Z</time>
      </trkpt>
      <trkpt lat="47.25539" lon="4.9107">
        <ele>554</ele>
        <time>2021-03-21T15:34:58.000Z</time>
      </trkpt>
      <trkpt lat="47.25541" lon="4.91055">
        <ele>554</ele>
        <time>2021-03-21T15:35:05.000Z</time>
      </trkpt>
      <trkpt lat="47.2555" lon="4.91044">
        <ele>552</ele>
        <time>2021-03-21T15:35:14.000Z</time>
      </trkpt>
      <trkpt lat="47.25555" lon="4.91031">
        <ele>554</ele>
        <time>2021-03-21T15:35:23.000Z</time>
      </trkpt>
      <trkpt lat="47.25563" lon="4.9102">
        <ele>555</ele>
        <time>2021-03-21T15:35:31.000Z</time>
      </trkpt>
      <trkpt lat="47.25561" lon="4.91006">
        <ele>555</ele>
        <time>2021-03-21T15:35:37.000Z</time>
      </trkpt>
      <trkpt lat="47.25562" lon="4.90991">
        <ele>555</ele>
        <time>2021-03-21T15:35:42.000Z</time>
      </trkpt>
      <trkpt lat="47.25564" lon="4.90976">
        <ele>557</ele>
        <time>2021-03-21T15:35:47.000Z</time>
      </trkpt>
      <trkpt lat="47.25566" lon="4.90959">
        <ele>552</ele>
        <time>2021-03-21T15:35:53.000Z</time>
      </trkpt>
      <trkpt lat="47.25573" lon="4.90948">
        <ele>556</ele>
        <time>2021-03-21T15:36:04.000Z</time>
      </trkpt>
      <trkpt lat="47.25575" lon="4.9093">
        <ele>562</ele>
        <time>2021-03-21T15:36:13.000Z</time>
      </trkpt>
      <trkpt lat="47.25583" lon="4.90921">
        <ele>559</ele>
        <time>2021-03-21T15:36:21.000Z</time>
      </trkpt>
      <trkpt lat="47.25591" lon="4.90909">
        <ele>536</ele>
        <time>2021-03-21T15:36:31.000Z</time>
      </trkpt>
      <trkpt lat="47.2559" lon="4.9089">
        <ele>555</ele>
        <time>2021-03-21T15:36:42.000Z</time>
      </trkpt>
      <trkpt lat="47.25599" lon="4.90876">
        <ele>558</ele>
        <time>2021-03-21T15:36:51.000Z</time>
      </trkpt>
      <trkpt lat="47.25606" lon="4.90865">
        <ele>562</ele>
        <time>2021-03-21T15:37:00.000Z</time>
      </trkpt>
      <trkpt lat="47.25616" lon="4.90854">
        <ele>562</ele>
        <time>2021-03-21T15:37:09.000Z</time>
      </trkpt>
      <trkpt lat="47.25622" lon="4.90844">
        <ele>561</ele>
        <time>2021-03-21T15:37:15.000Z</time>
      </trkpt>
      <trkpt lat="47.25623" lon="4.9083">
        <ele>561</ele>
        <time>2021-03-21T15:37:21.000Z</time>
      </trkpt>
      <trkpt lat="47.25633" lon="4.9082">
        <ele>539</ele>
        <time>2021-03-21T15:37:33.000Z</time>
      </trkpt>
      <trkpt lat="47.25641" lon="4.9083">
        <ele>556</ele>
        <time>2021-03-21T15:49:27.000Z</time>
      </trkpt>
      <trkpt lat="47.25635" lon="4.90842">
        <ele>552</ele>
        <time>2021-03-21T15:50:05.000Z</time>
      </trkpt>
      <trkpt lat="47.25625" lon="4.90846">
        <ele>551</ele>
        <time>2021-03-21T15:50:14.000Z</time>
      </trkpt>
      <trkpt lat="47.25615" lon="4.90848">
        <ele>552</ele>
        <time>2021-03-21T15:50:20.000Z</time>
      </trkpt>
      <trkpt lat="47.25607" lon="4.90857">
        <ele>551</ele>
        <time>2021-03-21T15:50:35.000Z</time>
      </trkpt>
      <trkpt lat="47.25597" lon="4.90869">
        <ele>555</ele>
        <time>2021-03-21T15:50:44.000Z</time>
      </trkpt>
      <trkpt lat="47.25589" lon="4.90882">
        <ele>553</ele>
        <time>2021-03-21T15:50:53.000Z</time>
      </trkpt>
      <trkpt lat="47.25586" lon="4.90897">
        <ele>553</ele>
        <time>2021-03-21T15:51:03.000Z</time>
      </trkpt>
      <trkpt lat="47.25581" lon="4.90912">
        <ele>556</ele>
        <time>2021-03-21T15:51:12.000Z</time>
      </trkpt>
      <trkpt lat="47.25578" lon="4.9093">
        <ele>559</ele>
        <time>2021-03-21T15:51:21.000Z</time>
      </trkpt>
      <trkpt lat="47.25575" lon="4.90942">
        <ele>557</ele>
        <time>2021-03-21T15:51:30.000Z</time>
      </trkpt>
      <trkpt lat="47.25574" lon="4.90959">
        <ele>553</ele>
        <time>2021-03-21T15:51:39.000Z</time>
      </trkpt>
      <trkpt lat="47.25568" lon="4.9097">
        <ele>554</ele>
        <time>2021-03-21T15:52:00.000Z</time>
      </trkpt>
      <trkpt lat="47.25566" lon="4.9099">
        <ele>552</ele>
        <time>2021-03-21T15:52:08.000Z</time>
      </trkpt>
      <trkpt lat="47.25561" lon="4.91008">
        <ele>546</ele>
        <time>2021-03-21T15:52:17.000Z</time>
      </trkpt>
      <trkpt lat="47.25558" lon="4.91024">
        <ele>548</ele>
        <time>2021-03-21T15:52:23.000Z</time>
      </trkpt>
      <trkpt lat="47.25555" lon="4.91038">
        <ele>547</ele>
        <time>2021-03-21T15:52:28.000Z</time>
      </trkpt>
      <trkpt lat="47.25553" lon="4.91053">
        <ele>551</ele>
        <time>2021-03-21T15:52:36.000Z</time>
      </trkpt>
      <trkpt lat="47.2555" lon="4.91066">
        <ele>551</ele>
        <time>2021-03-21T15:52:42.000Z</time>
      </trkpt>
      <trkpt lat="47.25549" lon="4.91081">
        <ele>549</ele>
        <time>2021-03-21T15:52:51.000Z</time>
      </trkpt>
      <trkpt lat="47.25542" lon="4.91095">
        <ele>550</ele>
        <time>2021-03-21T15:53:00.000Z</time>
      </trkpt>
      <trkpt lat="47.25538" lon="4.9111">
        <ele>551</ele>
        <time>2021-03-21T15:53:09.000Z</time>
      </trkpt>
      <trkpt lat="47.25533" lon="4.91123">
        <ele>552</ele>
        <time>2021-03-21T15:53:18.000Z</time>
      </trkpt>
      <trkpt lat="47.2553" lon="4.91137">
        <ele>551</ele>
        <time>2021-03-21T15:53:25.000Z</time>
      </trkpt>
      <trkpt lat="47.25527" lon="4.9115">
        <ele>551</ele>
        <time>2021-03-21T15:53:31.000Z</time>
      </trkpt>
      <trkpt lat="47.25523" lon="4.91169">
        <ele>550</ele>
        <time>2021-03-21T15:53:40.000Z</time>
      </trkpt>
      <trkpt lat="47.25518" lon="4.91186">
        <ele>549</ele>
        <time>2021-03-21T15:53:48.000Z</time>
      </trkpt>
      <trkpt lat="47.25514" lon="4.91201">
        <ele>550</ele>
        <time>2021-03-21T15:53:57.000Z</time>
      </trkpt>
      <trkpt lat="47.25512" lon="4.91217">
        <ele>551</ele>
        <time>2021-03-21T15:54:06.000Z</time>
      </trkpt>
      <trkpt lat="47.25509" lon="4.91231">
        <ele>551</ele>
        <time>2021-03-21T15:54:15.000Z</time>
      </trkpt>
      <trkpt lat="47.25505" lon="4.91245">
        <ele>551</ele>
        <time>2021-03-21T15:54:24.000Z</time>
      </trkpt>
      <trkpt lat="47.25498" lon="4.91252">
        <ele>550</ele>
        <time>2021-03-21T15:54:30.000Z</time>
      </trkpt>
      <trkpt lat="47.25491" lon="4.91263">
        <ele>551</ele>
        <time>2021-03-21T15:54:36.000Z</time>
      </trkpt>
      <trkpt lat="47.25487" lon="4.91282">
        <ele>554</ele>
        <time>2021-03-21T15:54:42.000Z</time>
      </trkpt>
      <trkpt lat="47.25484" lon="4.91297">
        <ele>549</ele>
        <time>2021-03-21T15:54:57.000Z</time>
      </trkpt>
      <trkpt lat="47.25477" lon="4.91312">
        <ele>554</ele>
        <time>2021-03-21T15:55:06.000Z</time>
      </trkpt>
      <trkpt lat="47.25474" lon="4.91331">
        <ele>559</ele>
        <time>2021-03-21T15:55:21.000Z</time>
      </trkpt>
      <trkpt lat="47.25474" lon="4.91348">
        <ele>562</ele>
        <time>2021-03-21T15:55:26.000Z</time>
      </trkpt>
      <trkpt lat="47.25471" lon="4.91363">
        <ele>564</ele>
        <time>2021-03-21T15:55:34.000Z</time>
      </trkpt>
      <trkpt lat="47.25468" lon="4.91376">
        <ele>556</ele>
        <time>2021-03-21T15:55:41.000Z</time>
      </trkpt>
      <trkpt lat="47.25465" lon="4.9139">
        <ele>558</ele>
        <time>2021-03-21T15:55:50.000Z</time>
      </trkpt>
      <trkpt lat="47.25462" lon="4.91406">
        <ele>560</ele>
        <time>2021-03-21T15:55:58.000Z</time>
      </trkpt>
      <trkpt lat="47.25462" lon="4.91422">
        <ele>566</ele>
        <time>2021-03-21T15:56:08.000Z</time>
      </trkpt>
      <trkpt lat="47.25465" lon="4.91435">
        <ele>562</ele>
        <time>2021-03-21T15:56:16.000Z</time>
      </trkpt>
      <trkpt lat="47.25472" lon="4.91452">
        <ele>561</ele>
        <time>2021-03-21T15:56:31.000Z</time>
      </trkpt>
      <trkpt lat="47.25479" lon="4.91465">
        <ele>562</ele>
        <time>2021-03-21T15:56:37.000Z</time>
      </trkpt>
      <trkpt lat="47.25476" lon="4.9149">
        <ele>563</ele>
        <time>2021-03-21T15:56:46.000Z</time>
      </trkpt>
      <trkpt lat="47.25477" lon="4.91506">
        <ele>563</ele>
        <time>2021-03-21T15:56:55.000Z</time>
      </trkpt>
      <trkpt lat="47.25475" lon="4.91526">
        <ele>537</ele>
        <time>2021-03-21T15:57:04.000Z</time>
      </trkpt>
      <trkpt lat="47.25475" lon="4.9154">
        <ele>559</ele>
        <time>2021-03-21T15:57:14.000Z</time>
      </trkpt>
      <trkpt lat="47.25477" lon="4.91557">
        <ele>568</ele>
        <time>2021-03-21T15:57:33.000Z</time>
      </trkpt>
      <trkpt lat="47.25477" lon="4.91574">
        <ele>564</ele>
        <time>2021-03-21T15:57:39.000Z</time>
      </trkpt>
      <trkpt lat="47.25475" lon="4.91593">
        <ele>570</ele>
        <time>2021-03-21T15:57:45.000Z</time>
      </trkpt>
      <trkpt lat="47.25476" lon="4.91617">
        <ele>572</ele>
        <time>2021-03-21T15:57:57.000Z</time>
      </trkpt>
      <trkpt lat="47.25473" lon="4.91632">
        <ele>572</ele>
        <time>2021-03-21T15:58:15.000Z</time>
      </trkpt>
      <trkpt lat="47.25467" lon="4.91652">
        <ele>570</ele>
        <time>2021-03-21T15:58:23.000Z</time>
      </trkpt>
      <trkpt lat="47.25461" lon="4.91668">
        <ele>572</ele>
        <time>2021-03-21T15:58:29.000Z</time>
      </trkpt>
      <trkpt lat="47.25457" lon="4.91683">
        <ele>575</ele>
        <time>2021-03-21T15:58:35.000Z</time>
      </trkpt>
      <trkpt lat="47.25456" lon="4.91696">
        <ele>574</ele>
        <time>2021-03-21T15:58:41.000Z</time>
      </trkpt>
      <trkpt lat="47.25451" lon="4.9171">
        <ele>577</ele>
        <time>2021-03-21T15:58:47.000Z</time>
      </trkpt>
      <trkpt lat="47.25445" lon="4.91724">
        <ele>578</ele>
        <time>2021-03-21T15:58:53.000Z</time>
      </trkpt>
      <trkpt lat="47.25442" lon="4.91739">
        <ele>579</ele>
        <time>2021-03-21T15:58:59.000Z</time>
      </trkpt>
      <trkpt lat="47.2544" lon="4.91753">
        <ele>578</ele>
        <time>2021-03-21T15:59:11.000Z</time>
      </trkpt>
      <trkpt lat="47.25435" lon="4.91769">
        <ele>578</ele>
        <time>2021-03-21T15:59:20.000Z</time>
      </trkpt>
      <trkpt lat="47.25433" lon="4.91782">
        <ele>580</ele>
        <time>2021-03-21T15:59:28.000Z</time>
      </trkpt>
      <trkpt lat="47.25431" lon="4.91796">
        <ele>581</ele>
        <time>2021-03-21T15:59:34.000Z</time>
      </trkpt>
      <trkpt lat="47.25427" lon="4.91809">
        <ele>579</ele>
        <time>2021-03-21T15:59:40.000Z</time>
      </trkpt>
      <trkpt lat="47.25425" lon="4.91825">
        <ele>577</ele>
        <time>2021-03-21T15:59:49.000Z</time>
      </trkpt>
      <trkpt lat="47.25423" lon="4.91839">
        <ele>577</ele>
        <time>2021-03-21T15:59:55.000Z</time>
      </trkpt>
      <trkpt lat="47.25424" lon="4.91854">
        <ele>577</ele>
        <time>2021-03-21T16:00:25.000Z</time>
      </trkpt>
      <trkpt lat="47.25419" lon="4.91874">
        <ele>582</ele>
        <time>2021-03-21T16:00:31.000Z</time>
      </trkpt>
      <trkpt lat="47.25418" lon="4.9189">
        <ele>580</ele>
        <time>2021-03-21T16:00:36.000Z</time>
      </trkpt>
      <trkpt lat="47.25417" lon="4.91904">
        <ele>584</ele>
        <time>2021-03-21T16:00:41.000Z</time>
      </trkpt>
      <trkpt lat="47.25418" lon="4.9192">
        <ele>584</ele>
        <time>2021-03-21T16:00:47.000Z</time>
      </trkpt>
      <trkpt lat="47.25419" lon="4.91938">
        <ele>587</ele>
        <time>2021-03-21T16:00:55.000Z</time>
      </trkpt>
      <trkpt lat="47.25413" lon="4.91954">
        <ele>587</ele>
        <time>2021-03-21T16:01:04.000Z</time>
      </trkpt>
      <trkpt lat="47.25406" lon="4.91966">
        <ele>586</ele>
        <time>2021-03-21T16:01:10.000Z</time>
      </trkpt>
      <trkpt lat="47.254" lon="4.91977">
        <ele>587</ele>
        <time>2021-03-21T16:01:16.000Z</time>
      </trkpt>
      <trkpt lat="47.25403" lon="4.91992">
        <ele>588</ele>
        <time>2021-03-21T16:01:22.000Z</time>
      </trkpt>
      <trkpt lat="47.25405" lon="4.92007">
        <ele>588</ele>
        <time>2021-03-21T16:01:32.000Z</time>
      </trkpt>
      <trkpt lat="47.25406" lon="4.9202">
        <ele>587</ele>
        <time>2021-03-21T16:01:38.000Z</time>
      </trkpt>
      <trkpt lat="47.25412" lon="4.92037">
        <ele>584</ele>
        <time>2021-03-21T16:01:47.000Z</time>
      </trkpt>
      <trkpt lat="47.25413" lon="4.92051">
        <ele>586</ele>
        <time>2021-03-21T16:01:57.000Z</time>
      </trkpt>
      <trkpt lat="47.25418" lon="4.92064">
        <ele>585</ele>
        <time>2021-03-21T16:02:03.000Z</time>
      </trkpt>
      <trkpt lat="47.25422" lon="4.92077">
        <ele>580</ele>
        <time>2021-03-21T16:02:09.000Z</time>
      </trkpt>
      <trkpt lat="47.25427" lon="4.92091">
        <ele>580</ele>
        <time>2021-03-21T16:02:19.000Z</time>
      </trkpt>
      <trkpt lat="47.2543" lon="4.92106">
        <ele>579</ele>
        <time>2021-03-21T16:02:29.000Z</time>
      </trkpt>
      <trkpt lat="47.25438" lon="4.92116">
        <ele>586</ele>
        <time>2021-03-21T16:02:36.000Z</time>
      </trkpt>
      <trkpt lat="47.25444" lon="4.9213">
        <ele>583</ele>
        <time>2021-03-21T16:02:42.000Z</time>
      </trkpt>
      <trkpt lat="47.25451" lon="4.92145">
        <ele>586</ele>
        <time>2021-03-21T16:03:12.000Z</time>
      </trkpt>
      <trkpt lat="47.25454" lon="4.92161">
        <ele>588</ele>
        <time>2021-03-21T16:03:17.000Z</time>
      </trkpt>
      <trkpt lat="47.2546" lon="4.92175">
        <ele>588</ele>
        <time>2021-03-21T16:03:22.000Z</time>
      </trkpt>
      <trkpt lat="47.25469" lon="4.92195">
        <ele>589</ele>
        <time>2021-03-21T16:03:28.000Z</time>
      </trkpt>
      <trkpt lat="47.2547" lon="4.92214">
        <ele>589</ele>
        <time>2021-03-21T16:03:36.000Z</time>
      </trkpt>
      <trkpt lat="47.25476" lon="4.92226">
        <ele>589</ele>
        <time>2021-03-21T16:03:42.000Z</time>
      </trkpt>
      <trkpt lat="47.25481" lon="4.92242">
        <ele>587</ele>
        <time>2021-03-21T16:03:54.000Z</time>
      </trkpt>
      <trkpt lat="47.2549" lon="4.92249">
        <ele>590</ele>
        <time>2021-03-21T16:04:03.000Z</time>
      </trkpt>
      <trkpt lat="47.25492" lon="4.92268">
        <ele>588</ele>
        <time>2021-03-21T16:04:12.000Z</time>
      </trkpt>
      <trkpt lat="47.2549" lon="4.92281">
        <ele>588</ele>
        <time>2021-03-21T16:04:18.000Z</time>
      </trkpt>
      <trkpt lat="47.25486" lon="4.92299">
        <ele>560</ele>
        <time>2021-03-21T16:04:24.000Z</time>
      </trkpt>
      <trkpt lat="47.25477" lon="4.9231">
        <ele>575</ele>
        <time>2021-03-21T16:04:29.000Z</time>
      </trkpt>
      <trkpt lat="47.25479" lon="4.92323">
        <ele>585</ele>
        <time>2021-03-21T16:04:35.000Z</time>
      </trkpt>
      <trkpt lat="47.25484" lon="4.92335">
        <ele>592</ele>
        <time>2021-03-21T16:04:40.000Z</time>
      </trkpt>
      <trkpt lat="47.25484" lon="4.9235">
        <ele>594</ele>
        <time>2021-03-21T16:04:47.000Z</time>
      </trkpt>
      <trkpt lat="47.25483" lon="4.92365">
        <ele>569</ele>
        <time>2021-03-21T16:04:54.000Z</time>
      </trkpt>
      <trkpt lat="47.25484" lon="4.9238">
        <ele>585</ele>
        <time>2021-03-21T16:05:03.000Z</time>
      </trkpt>
      <trkpt lat="47.25484" lon="4.92397">
        <ele>591</ele>
        <time>2021-03-21T16:05:12.000Z</time>
      </trkpt>
      <trkpt lat="47.25485" lon="4.92411">
        <ele>588</ele>
        <time>2021-03-21T16:05:23.000Z</time>
      </trkpt>
      <trkpt lat="47.25485" lon="4.92431">
        <ele>590</ele>
        <time>2021-03-21T16:05:30.000Z</time>
      </trkpt>
      <trkpt lat="47.2549" lon="4.92445">
        <ele>592</ele>
        <time>2021-03-21T16:05:36.000Z</time>
      </trkpt>
      <trkpt lat="47.2549" lon="4.92466">
        <ele>592</ele>
        <time>2021-03-21T16:05:45.000Z</time>
      </trkpt>
      <trkpt lat="47.25488" lon="4.92481">
        <ele>594</ele>
        <time>2021-03-21T16:06:00.000Z</time>
      </trkpt>
      <trkpt lat="47.25491" lon="4.92499">
        <ele>596</ele>
        <time>2021-03-21T16:06:09.000Z</time>
      </trkpt>
      <trkpt lat="47.25495" lon="4.92512">
        <ele>594</ele>
        <time>2021-03-21T16:06:15.000Z</time>
      </trkpt>
      <trkpt lat="47.25494" lon="4.92529">
        <ele>592</ele>
        <time>2021-03-21T16:06:24.000Z</time>
      </trkpt>
      <trkpt lat="47.25495" lon="4.92542">
        <ele>593</ele>
        <time>2021-03-21T16:06:31.000Z</time>
      </trkpt>
      <trkpt lat="47.25496" lon="4.92559">
        <ele>594</ele>
        <time>2021-03-21T16:06:37.000Z</time>
      </trkpt>
      <trkpt lat="47.25496" lon="4.92573">
        <ele>592</ele>
        <time>2021-03-21T16:06:45.000Z</time>
      </trkpt>
      <trkpt lat="47.25493" lon="4.92591">
        <ele>594</ele>
        <time>2021-03-21T16:06:53.000Z</time>
      </trkpt>
      <trkpt lat="47.2549" lon="4.92608">
        <ele>596</ele>
        <time>2021-03-21T16:07:02.000Z</time>
      </trkpt>
      <trkpt lat="47.25489" lon="4.92625">
        <ele>593</ele>
        <time>2021-03-21T16:07:14.000Z</time>
      </trkpt>
      <trkpt lat="47.25491" lon="4.92643">
        <ele>587</ele>
        <time>2021-03-21T16:07:23.000Z</time>
      </trkpt>
      <trkpt lat="47.25486" lon="4.9266">
        <ele>586</ele>
        <time>2021-03-21T16:07:32.000Z</time>
      </trkpt>
      <trkpt lat="47.25484" lon="4.92677">
        <ele>588</ele>
        <time>2021-03-21T16:07:38.000Z</time>
      </trkpt>
      <trkpt lat="47.25475" lon="4.92699">
        <ele>592</ele>
        <time>2021-03-21T16:07:44.000Z</time>
      </trkpt>
      <trkpt lat="47.25472" lon="4.92713">
        <ele>592</ele>
        <time>2021-03-21T16:07:53.000Z</time>
      </trkpt>
      <trkpt lat="47.2547" lon="4.92727">
        <ele>589</ele>
        <time>2021-03-21T16:08:00.000Z</time>
      </trkpt>
      <trkpt lat="47.25465" lon="4.92742">
        <ele>589</ele>
        <time>2021-03-21T16:08:09.000Z</time>
      </trkpt>
      <trkpt lat="47.25462" lon="4.92756">
        <ele>593</ele>
        <time>2021-03-21T16:08:17.000Z</time>
      </trkpt>
      <trkpt lat="47.25457" lon="4.92774">
        <ele>593</ele>
        <time>2021-03-21T16:08:39.000Z</time>
      </trkpt>
      <trkpt lat="47.25457" lon="4.92789">
        <ele>594</ele>
        <time>2021-03-21T16:08:43.000Z</time>
      </trkpt>
      <trkpt lat="47.25454" lon="4.92803">
        <ele>590</ele>
        <time>2021-03-21T16:08:49.000Z</time>
      </trkpt>
      <trkpt lat="47.25452" lon="4.9282">
        <ele>589</ele>
        <time>2021-03-21T16:08:54.000Z</time>
      </trkpt>
      <trkpt lat="47.25447" lon="4.92832">
        <ele>585</ele>
        <time>2021-03-21T16:08:59.000Z</time>
      </trkpt>
      <trkpt lat="47.25443" lon="4.92846">
        <ele>587</ele>
        <time>2021-03-21T16:09:07.000Z</time>
      </trkpt>
      <trkpt lat="47.25441" lon="4.9287">
        <ele>581</ele>
        <time>2021-03-21T16:09:25.000Z</time>
      </trkpt>
      <trkpt lat="47.25437" lon="4.92887">
        <ele>582</ele>
        <time>2021-03-21T16:09:31.000Z</time>
      </trkpt>
      <trkpt lat="47.25431" lon="4.92899">
        <ele>583</ele>
        <time>2021-03-21T16:09:37.000Z</time>
      </trkpt>
      <trkpt lat="47.2543" lon="4.92915">
        <ele>584</ele>
        <time>2021-03-21T16:09:43.000Z</time>
      </trkpt>
      <trkpt lat="47.25428" lon="4.92929">
        <ele>585</ele>
        <time>2021-03-21T16:09:52.000Z</time>
      </trkpt>
      <trkpt lat="47.25429" lon="4.92944">
        <ele>587</ele>
        <time>2021-03-21T16:09:58.000Z</time>
      </trkpt>
      <trkpt lat="47.25432" lon="4.92959">
        <ele>589</ele>
        <time>2021-03-21T16:10:04.000Z</time>
      </trkpt>
      <trkpt lat="47.2543" lon="4.92975">
        <ele>588</ele>
        <time>2021-03-21T16:10:13.000Z</time>
      </trkpt>
      <trkpt lat="47.25429" lon="4.92989">
        <ele>586</ele>
        <time>2021-03-21T16:10:22.000Z</time>
      </trkpt>
      <trkpt lat="47.25433" lon="4.93003">
        <ele>586</ele>
        <time>2021-03-21T16:10:28.000Z</time>
      </trkpt>
      <trkpt lat="47.25433" lon="4.9302">
        <ele>585</ele>
        <time>2021-03-21T16:10:34.000Z</time>
      </trkpt>
      <trkpt lat="47.25432" lon="4.93036">
        <ele>585</ele>
        <time>2021-03-21T16:10:43.000Z</time>
      </trkpt>
      <trkpt lat="47.25438" lon="4.93049">
        <ele>583</ele>
        <time>2021-03-21T16:10:52.000Z</time>
      </trkpt>
      <trkpt lat="47.2544" lon="4.93071">
        <ele>558</ele>
        <time>2021-03-21T16:11:00.000Z</time>
      </trkpt>
      <trkpt lat="47.25443" lon="4.93084">
        <ele>577</ele>
        <time>2021-03-21T16:11:09.000Z</time>
      </trkpt>
      <trkpt lat="47.25451" lon="4.93094">
        <ele>578</ele>
        <time>2021-03-21T16:11:21.000Z</time>
      </trkpt>
      <trkpt lat="47.25454" lon="4.93112">
        <ele>575</ele>
        <time>2021-03-21T16:11:29.000Z</time>
      </trkpt>
      <trkpt lat="47.25454" lon="4.93131">
        <ele>579</ele>
        <time>2021-03-21T16:11:37.000Z</time>
      </trkpt>
      <trkpt lat="47.25455" lon="4.93148">
        <ele>580</ele>
        <time>2021-03-21T16:11:43.000Z</time>
      </trkpt>
      <trkpt lat="47.25457" lon="4.93163">
        <ele>579</ele>
        <time>2021-03-21T16:11:49.000Z</time>
      </trkpt>
      <trkpt lat="47.25458" lon="4.93177">
        <ele>579</ele>
        <time>2021-03-21T16:11:55.000Z</time>
      </trkpt>
      <trkpt lat="47.25464" lon="4.93193">
        <ele>582</ele>
        <time>2021-03-21T16:12:07.000Z</time>
      </trkpt>
      <trkpt lat="47.25466" lon="4.93207">
        <ele>579</ele>
        <time>2021-03-21T16:12:15.000Z</time>
      </trkpt>
      <trkpt lat="47.25471" lon="4.93223">
        <ele>579</ele>
        <time>2021-03-21T16:12:25.000Z</time>
      </trkpt>
      <trkpt lat="47.25471" lon="4.9324">
        <ele>581</ele>
        <time>2021-03-21T16:12:33.000Z</time>
      </trkpt>
      <trkpt lat="47.25468" lon="4.93258">
        <ele>578</ele>
        <time>2021-03-21T16:12:39.000Z</time>
      </trkpt>
      <trkpt lat="47.25473" lon="4.93274">
        <ele>580</ele>
        <time>2021-03-21T16:12:51.000Z</time>
      </trkpt>
      <trkpt lat="47.25472" lon="4.9329">
        <ele>583</ele>
        <time>2021-03-21T16:12:58.000Z</time>
      </trkpt>
      <trkpt lat="47.25472" lon="4.93304">
        <ele>585</ele>
        <time>2021-03-21T16:13:03.000Z</time>
      </trkpt>
      <trkpt lat="47.25478" lon="4.93316">
        <ele>584</ele>
        <time>2021-03-21T16:13:08.000Z</time>
      </trkpt>
      <trkpt lat="47.25479" lon="4.93335">
        <ele>579</ele>
        <time>2021-03-21T16:13:20.000Z</time>
      </trkpt>
      <trkpt lat="47.25475" lon="4.93349">
        <ele>582</ele>
        <time>2021-03-21T16:13:29.000Z</time>
      </trkpt>
      <trkpt lat="47.25475" lon="4.93365">
        <ele>576</ele>
        <time>2021-03-21T16:13:41.000Z</time>
      </trkpt>
      <trkpt lat="47.2547" lon="4.93377">
        <ele>572</ele>
        <time>2021-03-21T16:13:50.000Z</time>
      </trkpt>
      <trkpt lat="47.25474" lon="4.9339">
        <ele>573</ele>
        <time>2021-03-21T16:14:05.000Z</time>
      </trkpt>
      <trkpt lat="47.25477" lon="4.93409">
        <ele>571</ele>
        <time>2021-03-21T16:14:11.000Z</time>
      </trkpt>
      <trkpt lat="47.25475" lon="4.93429">
        <ele>564</ele>
        <time>2021-03-21T16:14:17.000Z</time>
      </trkpt>
      <trkpt lat="47.25478" lon="4.93448">
        <ele>564</ele>
        <time>2021-03-21T16:14:26.000Z</time>
      </trkpt>
      <trkpt lat="47.25482" lon="4.93462">
        <ele>564</ele>
        <time>2021-03-21T16:14:35.000Z</time>
      </trkpt>
      <trkpt lat="47.25482" lon="4.93476">
        <ele>564</ele>
        <time>2021-03-21T16:14:41.000Z</time>
      </trkpt>
      <trkpt lat="47.2548" lon="4.93494">
        <ele>564</ele>
        <time>2021-03-21T16:14:50.000Z</time>
      </trkpt>
      <trkpt lat="47.25477" lon="4.93511">
        <ele>561</ele>
        <time>2021-03-21T16:14:59.000Z</time>
      </trkpt>
      <trkpt lat="47.25481" lon="4.93528">
        <ele>560</ele>
        <time>2021-03-21T16:15:11.000Z</time>
      </trkpt>
      <trkpt lat="47.25489" lon="4.93543">
        <ele>563</ele>
        <time>2021-03-21T16:15:17.000Z</time>
      </trkpt>
      <trkpt lat="47.25489" lon="4.93557">
        <ele>559</ele>
        <time>2021-03-21T16:15:25.000Z</time>
      </trkpt>
      <trkpt lat="47.25489" lon="4.93571">
        <ele>559</ele>
        <time>2021-03-21T16:15:31.000Z</time>
      </trkpt>
      <trkpt lat="47.25493" lon="4.93584">
        <ele>559</ele>
        <time>2021-03-21T16:15:37.000Z</time>
      </trkpt>
      <trkpt lat="47.25501" lon="4.93601">
        <ele>559</ele>
        <time>2021-03-21T16:15:46.000Z</time>
      </trkpt>
      <trkpt lat="47.25505" lon="4.93613">
        <ele>557</ele>
        <time>2021-03-21T16:15:52.000Z</time>
      </trkpt>
      <trkpt lat="47.25511" lon="4.93627">
        <ele>558</ele>
        <time>2021-03-21T16:15:57.000Z</time>
      </trkpt>
      <trkpt lat="47.25513" lon="4.9364">
        <ele>553</ele>
        <time>2021-03-21T16:16:04.000Z</time>
      </trkpt>
      <trkpt lat="47.25516" lon="4.93655">
        <ele>560</ele>
        <time>2021-03-21T16:16:12.000Z</time>
      </trkpt>
      <trkpt lat="47.25521" lon="4.93668">
        <ele>561</ele>
        <time>2021-03-21T16:16:25.000Z</time>
      </trkpt>
      <trkpt lat="47.25528" lon="4.93685">
        <ele>565</ele>
        <time>2021-03-21T16:16:34.000Z</time>
      </trkpt>
      <trkpt lat="47.25526" lon="4.93705">
        <ele>556</ele>
        <time>2021-03-21T16:16:42.000Z</time>
      </trkpt>
      <trkpt lat="47.25528" lon="4.93719">
        <ele>556</ele>
        <time>2021-03-21T16:16:51.000Z</time>
      </trkpt>
      <trkpt lat="47.25526" lon="4.93735">
        <ele>559</ele>
        <time>2021-03-21T16:16:58.000Z</time>
      </trkpt>
      <trkpt lat="47.25522" lon="4.93747">
        <ele>560</ele>
        <time>2021-03-21T16:17:04.000Z</time>
      </trkpt>
      <trkpt lat="47.25519" lon="4.9376">
        <ele>559</ele>
        <time>2021-03-21T16:17:08.000Z</time>
      </trkpt>
      <trkpt lat="47.25517" lon="4.93773">
        <ele>558</ele>
        <time>2021-03-21T16:17:14.000Z</time>
      </trkpt>
      <trkpt lat="47.25513" lon="4.9379">
        <ele>553</ele>
        <time>2021-03-21T16:17:26.000Z</time>
      </trkpt>
      <trkpt lat="47.25508" lon="4.93803">
        <ele>554</ele>
        <time>2021-03-21T16:17:31.000Z</time>
      </trkpt>
      <trkpt lat="47.25506" lon="4.93819">
        <ele>558</ele>
        <time>2021-03-21T16:17:36.000Z</time>
      </trkpt>
      <trkpt lat="47.25502" lon="4.93834">
        <ele>555</ele>
        <time>2021-03-21T16:17:46.000Z</time>
      </trkpt>
      <trkpt lat="47.25498" lon="4.93848">
        <ele>554</ele>
        <time>2021-03-21T16:17:54.000Z</time>
      </trkpt>
      <trkpt lat="47.25491" lon="4.93858">
        <ele>550</ele>
        <time>2021-03-21T16:18:00.000Z</time>
      </trkpt>
      <trkpt lat="47.25483" lon="4.93871">
        <ele>543</ele>
        <time>2021-03-21T16:18:12.000Z</time>
      </trkpt>
      <trkpt lat="47.25483" lon="4.93886">
        <ele>544</ele>
        <time>2021-03-21T16:18:21.000Z</time>
      </trkpt>
      <trkpt lat="47.25478" lon="4.93897">
        <ele>539</ele>
        <time>2021-03-21T16:18:27.000Z</time>
      </trkpt>
      <trkpt lat="47.25472" lon="4.9391">
        <ele>537</ele>
        <time>2021-03-21T16:18:33.000Z</time>
      </trkpt>
      <trkpt lat="47.25464" lon="4.93924">
        <ele>543</ele>
        <time>2021-03-21T16:18:39.000Z</time>
      </trkpt>
      <trkpt lat="47.25466" lon="4.93939">
        <ele>543</ele>
        <time>2021-03-21T16:18:47.000Z</time>
      </trkpt>
      <trkpt lat="47.25464" lon="4.93953">
        <ele>542</ele>
        <time>2021-03-21T16:18:54.000Z</time>
      </trkpt>
      <trkpt lat="47.25459" lon="4.93965">
        <ele>543</ele>
        <time>2021-03-21T16:19:04.000Z</time>
      </trkpt>
      <trkpt lat="47.25456" lon="4.93983">
        <ele>542</ele>
        <time>2021-03-21T16:19:13.000Z</time>
      </trkpt>
      <trkpt lat="47.25454" lon="4.94001">
        <ele>544</ele>
        <time>2021-03-21T16:19:21.000Z</time>
      </trkpt>
      <trkpt lat="47.25453" lon="4.94015">
        <ele>543</ele>
        <time>2021-03-21T16:19:27.000Z</time>
      </trkpt>
      <trkpt lat="47.2545" lon="4.94028">
        <ele>546</ele>
        <time>2021-03-21T16:19:33.000Z</time>
      </trkpt>
      <trkpt lat="47.25447" lon="4.94046">
        <ele>553</ele>
        <time>2021-03-21T16:19:43.000Z</time>
      </trkpt>
      <trkpt lat="47.25449" lon="4.94064">
        <ele>549</ele>
        <time>2021-03-21T16:19:49.000Z</time>
      </trkpt>
      <trkpt lat="47.25451" lon="4.94081">
        <ele>553</ele>
        <time>2021-03-21T16:19:58.000Z</time>
      </trkpt>
      <trkpt lat="47.25451" lon="4.94098">
        <ele>546</ele>
        <time>2021-03-21T16:20:07.000Z</time>
      </trkpt>
      <trkpt lat="47.25447" lon="4.94111">
        <ele>547</ele>
        <time>2021-03-21T16:20:13.000Z</time>
      </trkpt>
      <trkpt lat="47.25443" lon="4.94129">
        <ele>547</ele>
        <time>2021-03-21T16:20:22.000Z</time>
      </trkpt>
      <trkpt lat="47.25441" lon="4.94145">
        <ele>544</ele>
        <time>2021-03-21T16:20:35.000Z</time>
      </trkpt>
      <trkpt lat="47.25442" lon="4.9416">
        <ele>542</ele>
        <time>2021-03-21T16:20:43.000Z</time>
      </trkpt>
      <trkpt lat="47.25444" lon="4.94178">
        <ele>546</ele>
        <time>2021-03-21T16:20:51.000Z</time>
      </trkpt>
      <trkpt lat="47.25449" lon="4.9419">
        <ele>541</ele>
        <time>2021-03-21T16:20:59.000Z</time>
      </trkpt>
      <trkpt lat="47.25449" lon="4.94204">
        <ele>544</ele>
        <time>2021-03-21T16:21:05.000Z</time>
      </trkpt>
      <trkpt lat="47.25442" lon="4.9422">
        <ele>541</ele>
        <time>2021-03-21T16:21:11.000Z</time>
      </trkpt>
      <trkpt lat="47.25442" lon="4.94235">
        <ele>542</ele>
        <time>2021-03-21T16:21:20.000Z</time>
      </trkpt>
      <trkpt lat="47.25442" lon="4.94253">
        <ele>541</ele>
        <time>2021-03-21T16:21:26.000Z</time>
      </trkpt>
      <trkpt lat="47.25436" lon="4.94266">
        <ele>544</ele>
        <time>2021-03-21T16:21:32.000Z</time>
      </trkpt>
      <trkpt lat="47.25434" lon="4.94279">
        <ele>544</ele>
        <time>2021-03-21T16:21:42.000Z</time>
      </trkpt>
      <trkpt lat="47.25433" lon="4.94294">
        <ele>538</ele>
        <time>2021-03-21T16:21:52.000Z</time>
      </trkpt>
      <trkpt lat="47.2543" lon="4.94311">
        <ele>535</ele>
        <time>2021-03-21T16:22:03.000Z</time>
      </trkpt>
      <trkpt lat="47.25428" lon="4.94327">
        <ele>534</ele>
        <time>2021-03-21T16:22:09.000Z</time>
      </trkpt>
      <trkpt lat="47.25428" lon="4.94341">
        <ele>529</ele>
        <time>2021-03-21T16:22:19.000Z</time>
      </trkpt>
      <trkpt lat="47.25425" lon="4.94358">
        <ele>532</ele>
        <time>2021-03-21T16:22:32.000Z</time>
      </trkpt>
      <trkpt lat="47.25427" lon="4.94373">
        <ele>528</ele>
        <time>2021-03-21T16:22:40.000Z</time>
      </trkpt>
      <trkpt lat="47.25428" lon="4.94388">
        <ele>528</ele>
        <time>2021-03-21T16:22:49.000Z</time>
      </trkpt>
      <trkpt lat="47.25428" lon="4.94403">
        <ele>527</ele>
        <time>2021-03-21T16:22:55.000Z</time>
      </trkpt>
      <trkpt lat="47.2543" lon="4.94418">
        <ele>525</ele>
        <time>2021-03-21T16:23:03.000Z</time>
      </trkpt>
      <trkpt lat="47.25425" lon="4.9443">
        <ele>523</ele>
        <time>2021-03-21T16:23:08.000Z</time>
      </trkpt>
      <trkpt lat="47.25422" lon="4.94443">
        <ele>523</ele>
        <time>2021-03-21T16:23:14.000Z</time>
      </trkpt>
      <trkpt lat="47.25423" lon="4.94464">
        <ele>524</ele>
        <time>2021-03-21T16:23:24.000Z</time>
      </trkpt>
      <trkpt lat="47.25423" lon="4.94479">
        <ele>528</ele>
        <time>2021-03-21T16:23:32.000Z</time>
      </trkpt>
      <trkpt lat="47.25421" lon="4.94492">
        <ele>524</ele>
        <time>2021-03-21T16:23:41.000Z</time>
      </trkpt>
      <trkpt lat="47.2542" lon="4.94507">
        <ele>525</ele>
        <time>2021-03-21T16:23:51.000Z</time>
      </trkpt>
      <trkpt lat="47.25416" lon="4.94522">
        <ele>525</ele>
        <time>2021-03-21T16:23:57.000Z</time>
      </trkpt>
      <trkpt lat="47.25414" lon="4.94541">
        <ele>527</ele>
        <time>2021-03-21T16:24:05.000Z</time>
      </trkpt>
      <trkpt lat="47.25409" lon="4.94554">
        <ele>522</ele>
        <time>2021-03-21T16:24:19.000Z</time>
      </trkpt>
      <trkpt lat="47.25405" lon="4.94573">
        <ele>520</ele>
        <time>2021-03-21T16:24:28.000Z</time>
      </trkpt>
      <trkpt lat="47.25402" lon="4.94588">
        <ele>518</ele>
        <time>2021-03-21T16:24:34.000Z</time>
      </trkpt>
      <trkpt lat="47.254" lon="4.94602">
        <ele>521</ele>
        <time>2021-03-21T16:24:40.000Z</time>
      </trkpt>
      <trkpt lat="47.25399" lon="4.94617">
        <ele>521</ele>
        <time>2021-03-21T16:24:47.000Z</time>
      </trkpt>
      <trkpt lat="47.25399" lon="4.94632">
        <ele>520</ele>
        <time>2021-03-21T16:24:57.000Z</time>
      </trkpt>
      <trkpt lat="47.25398" lon="4.94645">
        <ele>516</ele>
        <time>2021-03-21T16:25:06.000Z</time>
      </trkpt>
      <trkpt lat="47.25395" lon="4.94659">
        <ele>517</ele>
        <time>2021-03-21T16:25:12.000Z</time>
      </trkpt>
      <trkpt lat="47.25393" lon="4.94673">
        <ele>520</ele>
        <time>2021-03-21T16:25:18.000Z</time>
      </trkpt>
      <trkpt lat="47.25389" lon="4.94685">
        <ele>518</ele>
        <time>2021-03-21T16:25:26.000Z</time>
      </trkpt>
      <trkpt lat="47.25387" lon="4.94699">
        <ele>522</ele>
        <time>2021-03-21T16:25:31.000Z</time>
      </trkpt>
      <trkpt lat="47.25384" lon="4.94712">
        <ele>524</ele>
        <time>2021-03-21T16:25:38.000Z</time>
      </trkpt>
      <trkpt lat="47.25382" lon="4.94726">
        <ele>525</ele>
        <time>2021-03-21T16:25:45.000Z</time>
      </trkpt>
      <trkpt lat="47.25381" lon="4.94741">
        <ele>526</ele>
        <time>2021-03-21T16:25:53.000Z</time>
      </trkpt>
      <trkpt lat="47.2538" lon="4.94755">
        <ele>526</ele>
        <time>2021-03-21T16:26:00.000Z</time>
      </trkpt>
      <trkpt lat="47.25374" lon="4.94766">
        <ele>525</ele>
        <time>2021-03-21T16:26:07.000Z</time>
      </trkpt>
      <trkpt lat="47.25372" lon="4.94784">
        <ele>522</ele>
        <time>2021-03-21T16:26:15.000Z</time>
      </trkpt>
      <trkpt lat="47.25368" lon="4.94795">
        <ele>516</ele>
        <time>2021-03-21T16:26:24.000Z</time>
      </trkpt>
      <trkpt lat="47.25365" lon="4.94816">
        <ele>514</ele>
        <time>2021-03-21T16:26:35.000Z</time>
      </trkpt>
      <trkpt lat="47.25357" lon="4.94831">
        <ele>517</ele>
        <time>2021-03-21T16:26:45.000Z</time>
      </trkpt>
      <trkpt lat="47.25354" lon="4.94849">
        <ele>518</ele>
        <time>2021-03-21T16:26:51.000Z</time>
      </trkpt>
      <trkpt lat="47.25352" lon="4.94865">
        <ele>518</ele>
        <time>2021-03-21T16:26:59.000Z</time>
      </trkpt>
      <trkpt lat="47.25346" lon="4.94889">
        <ele>516</ele>
        <time>2021-03-21T16:27:14.000Z</time>
      </trkpt>
      <trkpt lat="47.25347" lon="4.94908">
        <ele>514</ele>
        <time>2021-03-21T16:27:23.000Z</time>
      </trkpt>
      <trkpt lat="47.25343" lon="4.94921">
        <ele>512</ele>
        <time>2021-03-21T16:27:33.000Z</time>
      </trkpt>
      <trkpt lat="47.25345" lon="4.94937">
        <ele>511</ele>
        <time>2021-03-21T16:27:41.000Z</time>
      </trkpt>
      <trkpt lat="47.25341" lon="4.94953">
        <ele>513</ele>
        <time>2021-03-21T16:27:49.000Z</time>
      </trkpt>
      <trkpt lat="47.25339" lon="4.9497">
        <ele>514</ele>
        <time>2021-03-21T16:27:58.000Z</time>
      </trkpt>
      <trkpt lat="47.25335" lon="4.94987">
        <ele>516</ele>
        <time>2021-03-21T16:28:07.000Z</time>
      </trkpt>
      <trkpt lat="47.2533" lon="4.94999">
        <ele>513</ele>
        <time>2021-03-21T16:28:13.000Z</time>
      </trkpt>
      <trkpt lat="47.25326" lon="4.95014">
        <ele>511</ele>
        <time>2021-03-21T16:28:22.000Z</time>
      </trkpt>
      <trkpt lat="47.25323" lon="4.9503">
        <ele>512</ele>
        <time>2021-03-21T16:28:30.000Z</time>
      </trkpt>
      <trkpt lat="47.25317" lon="4.95043">
        <ele>511</ele>
        <time>2021-03-21T16:28:38.000Z</time>
      </trkpt>
      <trkpt lat="47.25313" lon="4.95056">
        <ele>513</ele>
        <time>2021-03-21T16:28:44.000Z</time>
      </trkpt>
      <trkpt lat="47.25306" lon="4.95069">
        <ele>513</ele>
        <time>2021-03-21T16:28:53.000Z</time>
      </trkpt>
      <trkpt lat="47.25301" lon="4.95083">
        <ele>515</ele>
        <time>2021-03-21T16:29:02.000Z</time>
      </trkpt>
      <trkpt lat="47.253" lon="4.95098">
        <ele>514</ele>
        <time>2021-03-21T16:29:07.000Z</time>
      </trkpt>
      <trkpt lat="47.25295" lon="4.95111">
        <ele>514</ele>
        <time>2021-03-21T16:29:13.000Z</time>
      </trkpt>
      <trkpt lat="47.25292" lon="4.95123">
        <ele>513</ele>
        <time>2021-03-21T16:29:22.000Z</time>
      </trkpt>
      <trkpt lat="47.25291" lon="4.95138">
        <ele>514</ele>
        <time>2021-03-21T16:29:31.000Z</time>
      </trkpt>
      <trkpt lat="47.25289" lon="4.95152">
        <ele>513</ele>
        <time>2021-03-21T16:29:40.000Z</time>
      </trkpt>
      <trkpt lat="47.25286" lon="4.95169">
        <ele>512</ele>
        <time>2021-03-21T16:29:48.000Z</time>
      </trkpt>
      <trkpt lat="47.25284" lon="4.95185">
        <ele>511</ele>
        <time>2021-03-21T16:29:56.000Z</time>
      </trkpt>
      <trkpt lat="47.2528" lon="4.95201">
        <ele>510</ele>
        <time>2021-03-21T16:30:07.000Z</time>
      </trkpt>
      <trkpt lat="47.25278" lon="4.95216">
        <ele>512</ele>
        <time>2021-03-21T16:30:13.000Z</time>
      </trkpt>
      <trkpt lat="47.25274" lon="4.95227">
        <ele>509</ele>
        <time>2021-03-21T16:30:21.000Z</time>
      </trkpt>
      <trkpt lat="47.2527" lon="4.95244">
        <ele>510</ele>
        <time>2021-03-21T16:30:30.000Z</time>
      </trkpt>
      <trkpt lat="47.25265" lon="4.9526">
        <ele>508</ele>
        <time>2021-03-21T16:30:44.000Z</time>
      </trkpt>
      <trkpt lat="47.2526" lon="4.95271">
        <ele>505</ele>
        <time>2021-03-21T16:30:50.000Z</time>
      </trkpt>
      <trkpt lat="47.25252" lon="4.95286">
        <ele>507</ele>
        <time>2021-03-21T16:30:59.000Z</time>
      </trkpt>
      <trkpt lat="47.25249" lon="4.95299">
        <ele>506</ele>
        <time>2021-03-21T16:31:05.000Z</time>
      </trkpt>
      <trkpt lat="47.25246" lon="4.95313">
        <ele>502</ele>
        <time>2021-03-21T16:31:11.000Z</time>
      </trkpt>
      <trkpt lat="47.25245" lon="4.95331">
        <ele>503</ele>
        <time>2021-03-21T16:31:20.000Z</time>
      </trkpt>
      <trkpt lat="47.25239" lon="4.95344">
        <ele>502</ele>
        <time>2021-03-21T16:31:26.000Z</time>
      </trkpt>
      <trkpt lat="47.25234" lon="4.95359">
        <ele>505</ele>
        <time>2021-03-21T16:31:35.000Z</time>
      </trkpt>
      <trkpt lat="47.25224" lon="4.95377">
        <ele>506</ele>
        <time>2021-03-21T16:31:44.000Z</time>
      </trkpt>
      <trkpt lat="47.25218" lon="4.95389">
        <ele>500</ele>
        <time>2021-03-21T16:31:56.000Z</time>
      </trkpt>
      <trkpt lat="47.25209" lon="4.95403">
        <ele>496</ele>
        <time>2021-03-21T16:32:08.000Z</time>
      </trkpt>
      <trkpt lat="47.25203" lon="4.95423">
        <ele>495</ele>
        <time>2021-03-21T16:32:18.000Z</time>
      </trkpt>
      <trkpt lat="47.25199" lon="4.9544">
        <ele>494</ele>
        <time>2021-03-21T16:32:26.000Z</time>
      </trkpt>
      <trkpt lat="47.25193" lon="4.95451">
        <ele>494</ele>
        <time>2021-03-21T16:32:37.000Z</time>
      </trkpt>
      <trkpt lat="47.25186" lon="4.95466">
        <ele>496</ele>
        <time>2021-03-21T16:32:49.000Z</time>
      </trkpt>
      <trkpt lat="47.2518" lon="4.95479">
        <ele>495</ele>
        <time>2021-03-21T16:32:55.000Z</time>
      </trkpt>
      <trkpt lat="47.25174" lon="4.95494">
        <ele>496</ele>
        <time>2021-03-21T16:33:04.000Z</time>
      </trkpt>
      <trkpt lat="47.25169" lon="4.95506">
        <ele>495</ele>
        <time>2021-03-21T16:33:10.000Z</time>
      </trkpt>
      <trkpt lat="47.25164" lon="4.95518">
        <ele>499</ele>
        <time>2021-03-21T16:33:18.000Z</time>
      </trkpt>
      <trkpt lat="47.25157" lon="4.95531">
        <ele>498</ele>
        <time>2021-03-21T16:33:26.000Z</time>
      </trkpt>
      <trkpt lat="47.25148" lon="4.95543">
        <ele>499</ele>
        <time>2021-03-21T16:33:35.000Z</time>
      </trkpt>
      <trkpt lat="47.25141" lon="4.95557">
        <ele>500</ele>
        <time>2021-03-21T16:33:43.000Z</time>
      </trkpt>
      <trkpt lat="47.25132" lon="4.95567">
        <ele>497</ele>
        <time>2021-03-21T16:33:51.000Z</time>
      </trkpt>
      <trkpt lat="47.25124" lon="4.95578">
        <ele>497</ele>
        <time>2021-03-21T16:34:00.000Z</time>
      </trkpt>
      <trkpt lat="47.25118" lon="4.95591">
        <ele>494</ele>
        <time>2021-03-21T16:34:09.000Z</time>
      </trkpt>
      <trkpt lat="47.2511" lon="4.95602">
        <ele>492</ele>
        <time>2021-03-21T16:34:18.000Z</time>
      </trkpt>
      <trkpt lat="47.25102" lon="4.95613">
        <ele>492</ele>
        <time>2021-03-21T16:34:26.000Z</time>
      </trkpt>
      <trkpt lat="47.25096" lon="4.95623">
        <ele>492</ele>
        <time>2021-03-21T16:34:32.000Z</time>
      </trkpt>
      <trkpt lat="47.25088" lon="4.95633">
        <ele>491</ele>
        <time>2021-03-21T16:34:43.000Z</time>
      </trkpt>
      <trkpt lat="47.25083" lon="4.95649">
        <ele>492</ele>
        <time>2021-03-21T16:34:52.000Z</time>
      </trkpt>
      <trkpt lat="47.25081" lon="4.95668">
        <ele>492</ele>
        <time>2021-03-21T16:35:04.000Z</time>
      </trkpt>
      <trkpt lat="47.25075" lon="4.95681">
        <ele>488</ele>
        <time>2021-03-21T16:35:11.000Z</time>
      </trkpt>
      <trkpt lat="47.25069" lon="4.95694">
        <ele>487</ele>
        <time>2021-03-21T16:35:20.000Z</time>
      </trkpt>
      <trkpt lat="47.25067" lon="4.95709">
        <ele>488</ele>
        <time>2021-03-21T16:35:28.000Z</time>
      </trkpt>
      <trkpt lat="47.25061" lon="4.9572">
        <ele>485</ele>
        <time>2021-03-21T16:35:37.000Z</time>
      </trkpt>
      <trkpt lat="47.25054" lon="4.95734">
        <ele>486</ele>
        <time>2021-03-21T16:35:46.000Z</time>
      </trkpt>
      <trkpt lat="47.2505" lon="4.95747">
        <ele>484</ele>
        <time>2021-03-21T16:35:53.000Z</time>
      </trkpt>
      <trkpt lat="47.25047" lon="4.9576">
        <ele>486</ele>
        <time>2021-03-21T16:36:02.000Z</time>
      </trkpt>
      <trkpt lat="47.25041" lon="4.95771">
        <ele>484</ele>
        <time>2021-03-21T16:36:08.000Z</time>
      </trkpt>
      <trkpt lat="47.25035" lon="4.95784">
        <ele>484</ele>
        <time>2021-03-21T16:36:16.000Z</time>
      </trkpt>
      <trkpt lat="47.25027" lon="4.95797">
        <ele>490</ele>
        <time>2021-03-21T16:36:24.000Z</time>
      </trkpt>
      <trkpt lat="47.25019" lon="4.95806">
        <ele>477</ele>
        <time>2021-03-21T16:36:35.000Z</time>
      </trkpt>
      <trkpt lat="47.2501" lon="4.95815">
        <ele>487</ele>
        <time>2021-03-21T16:36:46.000Z</time>
      </trkpt>
      <trkpt lat="47.25001" lon="4.95821">
        <ele>472</ele>
        <time>2021-03-21T16:36:55.000Z</time>
      </trkpt>
      <trkpt lat="47.24992" lon="4.9583">
        <ele>470</ele>
        <time>2021-03-21T16:37:04.000Z</time>
      </trkpt>
      <trkpt lat="47.24984" lon="4.9584">
        <ele>468</ele>
        <time>2021-03-21T16:37:12.000Z</time>
      </trkpt>
      <trkpt lat="47.24976" lon="4.95847">
        <ele>468</ele>
        <time>2021-03-21T16:37:22.000Z</time>
      </trkpt>
      <trkpt lat="47.2497" lon="4.95858">
        <ele>467</ele>
        <time>2021-03-21T16:37:29.000Z</time>
      </trkpt>
      <trkpt lat="47.24962" lon="4.95867">
        <ele>465</ele>
        <time>2021-03-21T16:37:38.000Z</time>
      </trkpt>
      <trkpt lat="47.24953" lon="4.95871">
        <ele>465</ele>
        <time>2021-03-21T16:37:46.000Z</time>
      </trkpt>
      <trkpt lat="47.24944" lon="4.95878">
        <ele>464</ele>
        <time>2021-03-21T16:37:55.000Z</time>
      </trkpt>
      <trkpt lat="47.24936" lon="4.95885">
        <ele>465</ele>
        <time>2021-03-21T16:38:00.000Z</time>
      </trkpt>
      <trkpt lat="47.24926" lon="4.9589">
        <ele>471</ele>
        <time>2021-03-21T16:38:23.000Z</time>
      </trkpt>
      <trkpt lat="47.24917" lon="4.95902">
        <ele>473</ele>
        <time>2021-03-21T16:38:37.000Z</time>
      </trkpt>
      <trkpt lat="47.2491" lon="4.95917">
        <ele>472</ele>
        <time>2021-03-21T16:38:45.000Z</time>
      </trkpt>
      <trkpt lat="47.24906" lon="4.9593">
        <ele>472</ele>
        <time>2021-03-21T16:38:53.000Z</time>
      </trkpt>
      <trkpt lat="47.249" lon="4.9594">
        <ele>469</ele>
        <time>2021-03-21T16:39:02.000Z</time>
      </trkpt>
      <trkpt lat="47.24897" lon="4.95954">
        <ele>466</ele>
        <time>2021-03-21T16:39:14.000Z</time>
      </trkpt>
      <trkpt lat="47.24893" lon="4.95967">
        <ele>465</ele>
        <time>2021-03-21T16:39:20.000Z</time>
      </trkpt>
      <trkpt lat="47.24887" lon="4.95985">
        <ele>461</ele>
        <time>2021-03-21T16:39:29.000Z</time>
      </trkpt>
      <trkpt lat="47.24884" lon="4.96">
        <ele>463</ele>
        <time>2021-03-21T16:39:38.000Z</time>
      </trkpt>
      <trkpt lat="47.24882" lon="4.96016">
        <ele>464</ele>
        <time>2021-03-21T16:39:47.000Z</time>
      </trkpt>
      <trkpt lat="47.24881" lon="4.96029">
        <ele>464</ele>
        <time>2021-03-21T16:39:53.000Z</time>
      </trkpt>
      <trkpt lat="47.24875" lon="4.96044">
        <ele>462</ele>
        <time>2021-03-21T16:39:59.000Z</time>
      </trkpt>
      <trkpt lat="47.2488" lon="4.96057">
        <ele>461</ele>
        <time>2021-03-21T16:40:07.000Z</time>
      </trkpt>
      <trkpt lat="47.24882" lon="4.96073">
        <ele>466</ele>
        <time>2021-03-21T16:40:15.000Z</time>
      </trkpt>
      <trkpt lat="47.2488" lon="4.96089">
        <ele>461</ele>
        <time>2021-03-21T16:40:24.000Z</time>
      </trkpt>
      <trkpt lat="47.24881" lon="4.96108">
        <ele>456</ele>
        <time>2021-03-21T16:40:36.000Z</time>
      </trkpt>
      <trkpt lat="47.24886" lon="4.96127">
        <ele>457</ele>
        <time>2021-03-21T16:40:48.000Z</time>
      </trkpt>
      <trkpt lat="47.24889" lon="4.96143">
        <ele>455</ele>
        <time>2021-03-21T16:40:54.000Z</time>
      </trkpt>
      <trkpt lat="47.24889" lon="4.96158">
        <ele>455</ele>
        <time>2021-03-21T16:41:06.000Z</time>
      </trkpt>
      <trkpt lat="47.24889" lon="4.96175">
        <ele>455</ele>
        <time>2021-03-21T16:41:15.000Z</time>
      </trkpt>
      <trkpt lat="47.2489" lon="4.96188">
        <ele>451</ele>
        <time>2021-03-21T16:41:21.000Z</time>
      </trkpt>
      <trkpt lat="47.24893" lon="4.96203">
        <ele>452</ele>
        <time>2021-03-21T16:41:28.000Z</time>
      </trkpt>
      <trkpt lat="47.24895" lon="4.96222">
        <ele>452</ele>
        <time>2021-03-21T16:41:37.000Z</time>
      </trkpt>
      <trkpt lat="47.249" lon="4.96236">
        <ele>454</ele>
        <time>2021-03-21T16:41:46.000Z</time>
      </trkpt>
      <trkpt lat="47.24905" lon="4.96249">
        <ele>448</ele>
        <time>2021-03-21T16:41:58.000Z</time>
      </trkpt>
      <trkpt lat="47.2491" lon="4.96267">
        <ele>440</ele>
        <time>2021-03-21T16:42:14.000Z</time>
      </trkpt>
      <trkpt lat="47.24915" lon="4.96278">
        <ele>439</ele>
        <time>2021-03-21T16:42:20.000Z</time>
      </trkpt>
      <trkpt lat="47.24923" lon="4.96292">
        <ele>439</ele>
        <time>2021-03-21T16:42:29.000Z</time>
      </trkpt>
      <trkpt lat="47.24929" lon="4.96305">
        <ele>435</ele>
        <time>2021-03-21T16:42:35.000Z</time>
      </trkpt>
      <trkpt lat="47.24931" lon="4.9632">
        <ele>437</ele>
        <time>2021-03-21T16:42:44.000Z</time>
      </trkpt>
      <trkpt lat="47.24936" lon="4.96335">
        <ele>434</ele>
        <time>2021-03-21T16:42:53.000Z</time>
      </trkpt>
      <trkpt lat="47.24944" lon="4.96345">
        <ele>429</ele>
        <time>2021-03-21T16:43:05.000Z</time>
      </trkpt>
      <trkpt lat="47.24953" lon="4.96355">
        <ele>432</ele>
        <time>2021-03-21T16:43:14.000Z</time>
      </trkpt>
      <trkpt lat="47.24956" lon="4.96368">
        <ele>432</ele>
        <time>2021-03-21T16:43:20.000Z</time>
      </trkpt>
      <trkpt lat="47.24957" lon="4.96381">
        <ele>437</ele>
        <time>2021-03-21T16:43:32.000Z</time>
      </trkpt>
      <trkpt lat="47.2496" lon="4.96394">
        <ele>435</ele>
        <time>2021-03-21T16:43:48.000Z</time>
      </trkpt>
      <trkpt lat="47.24966" lon="4.96404">
        <ele>430</ele>
        <time>2021-03-21T16:44:19.000Z</time>
      </trkpt>
      <trkpt lat="47.24974" lon="4.96415">
        <ele>430</ele>
        <time>2021-03-21T16:44:31.000Z</time>
      </trkpt>
      <trkpt lat="47.2498" lon="4.96425">
        <ele>425</ele>
        <time>2021-03-21T16:44:40.000Z</time>
      </trkpt>
      <trkpt lat="47.24988" lon="4.96434">
        <ele>422</ele>
        <time>2021-03-21T16:44:49.000Z</time>
      </trkpt>
      <trkpt lat="47.24995" lon="4.96447">
        <ele>421</ele>
        <time>2021-03-21T16:44:58.000Z</time>
      </trkpt>
      <trkpt lat="47.24998" lon="4.96464">
        <ele>420</ele>
        <time>2021-03-21T16:45:07.000Z</time>
      </trkpt>
      <trkpt lat="47.24998" lon="4.9648">
        <ele>418</ele>
        <time>2021-03-21T16:45:14.000Z</time>
      </trkpt>
      <trkpt lat="47.25002" lon="4.96493">
        <ele>416</ele>
        <time>2021-03-21T16:45:24.000Z</time>
      </trkpt>
      <trkpt lat="47.25002" lon="4.96506">
        <ele>414</ele>
        <time>2021-03-21T16:45:30.000Z</time>
      </trkpt>
      <trkpt lat="47.24998" lon="4.96519">
        <ele>414</ele>
        <time>2021-03-21T16:45:40.000Z</time>
      </trkpt>
      <trkpt lat="47.24998" lon="4.96532">
        <ele>417</ele>
        <time>2021-03-21T16:46:03.000Z</time>
      </trkpt>
      <trkpt lat="47.24991" lon="4.96542">
        <ele>417</ele>
        <time>2021-03-21T16:46:21.000Z</time>
      </trkpt>
      <trkpt lat="47.24982" lon="4.96554">
        <ele>415</ele>
        <time>2021-03-21T16:46:27.000Z</time>
      </trkpt>
      <trkpt lat="47.24977" lon="4.96568">
        <ele>414</ele>
        <time>2021-03-21T16:46:33.000Z</time>
      </trkpt>
      <trkpt lat="47.24975" lon="4.96582">
        <ele>408</ele>
        <time>2021-03-21T16:46:44.000Z</time>
      </trkpt>
      <trkpt lat="47.24974" lon="4.96597">
        <ele>398</ele>
        <time>2021-03-21T16:46:58.000Z</time>
      </trkpt>
      <trkpt lat="47.24971" lon="4.96614">
        <ele>400</ele>
        <time>2021-03-21T16:47:07.000Z</time>
      </trkpt>
      <trkpt lat="47.24967" lon="4.96627">
        <ele>400</ele>
        <time>2021-03-21T16:47:13.000Z</time>
      </trkpt>
      <trkpt lat="47.24965" lon="4.96644">
        <ele>401</ele>
        <time>2021-03-21T16:47:22.000Z</time>
      </trkpt>
      <trkpt lat="47.24967" lon="4.96658">
        <ele>394</ele>
        <time>2021-03-21T16:47:40.000Z</time>
      </trkpt>
      <trkpt lat="47.24972" lon="4.96672">
        <ele>396</ele>
        <time>2021-03-21T16:47:51.000Z</time>
      </trkpt>
      <trkpt lat="47.24981" lon="4.96685">
        <ele>394</ele>
        <time>2021-03-21T16:48:21.000Z</time>
      </trkpt>
      <trkpt lat="47.2499" lon="4.96693">
        <ele>388</ele>
        <time>2021-03-21T16:48:27.000Z</time>
      </trkpt>
      <trkpt lat="47.24999" lon="4.96699">
        <ele>393</ele>
        <time>2021-03-21T16:48:33.000Z</time>
      </trkpt>
      <trkpt lat="47.25006" lon="4.96713">
        <ele>419</ele>
        <time>2021-03-21T16:48:41.000Z</time>
      </trkpt>
      <trkpt lat="47.25013" lon="4.96726">
        <ele>402</ele>
        <time>2021-03-21T16:48:49.000Z</time>
      </trkpt>
      <trkpt lat="47.25018" lon="4.96742">
        <ele>388</ele>
        <time>2021-03-21T16:48:58.000Z</time>
      </trkpt>
      <trkpt lat="47.25022" lon="4.96757">
        <ele>384</ele>
        <time>2021-03-21T16:49:07.000Z</time>
      </trkpt>
      <trkpt lat="47.25023" lon="4.96771">
        <ele>383</ele>
        <time>2021-03-21T16:50:01.000Z</time>
      </trkpt>
      <trkpt lat="47.25014" lon="4.9678">
        <ele>378</ele>
        <time>2021-03-21T16:50:20.000Z</time>
      </trkpt>
      <trkpt lat="47.25009" lon="4.96793">
        <ele>376</ele>
        <time>2021-03-21T16:50:32.000Z</time>
      </trkpt>
      <trkpt lat="47.25011" lon="4.96807">
        <ele>376</ele>
        <time>2021-03-21T16:50:43.000Z</time>
      </trkpt>
      <trkpt lat="47.25011" lon="4.96827">
        <ele>379</ele>
        <time>2021-03-21T16:50:52.000Z</time>
      </trkpt>
      <trkpt lat="47.25012" lon="4.9684">
        <ele>375</ele>
        <time>2021-03-21T16:51:00.000Z</time>
      </trkpt>
      <trkpt lat="47.25009" lon="4.96855">
        <ele>375</ele>
        <time>2021-03-21T16:51:09.000Z</time>
      </trkpt>
      <trkpt lat="47.25007" lon="4.9687">
        <ele>377</ele>
        <time>2021-03-21T16:51:18.000Z</time>
      </trkpt>
      <trkpt lat="47.25002" lon="4.96889">
        <ele>378</ele>
        <time>2021-03-21T16:51:27.000Z</time>
      </trkpt>
      <trkpt lat="47.25002" lon="4.96904">
        <ele>377</ele>
        <time>2021-03-21T16:51:36.000Z</time>
      </trkpt>
      <trkpt lat="47.25001" lon="4.96922">
        <ele>376</ele>
        <time>2021-03-21T16:51:45.000Z</time>
      </trkpt>
      <trkpt lat="47.25004" lon="4.96937">
        <ele>377</ele>
        <time>2021-03-21T16:51:54.000Z</time>
      </trkpt>
      <trkpt lat="47.25003" lon="4.96956">
        <ele>373</ele>
        <time>2021-03-21T16:52:03.000Z</time>
      </trkpt>
      <trkpt lat="47.25017" lon="4.96958">
        <ele>369</ele>
        <time>2021-03-21T16:52:18.000Z</time>
      </trkpt>
      <trkpt lat="47.25027" lon="4.96965">
        <ele>369</ele>
        <time>2021-03-21T16:52:29.000Z</time>
      </trkpt>
      <trkpt lat="47.25034" lon="4.96973">
        <ele>369</ele>
        <time>2021-03-21T16:52:35.000Z</time>
      </trkpt>
      <trkpt lat="47.25043" lon="4.96983">
        <ele>367</ele>
        <time>2021-03-21T16:52:47.000Z</time>
      </trkpt>
      <trkpt lat="47.25052" lon="4.96985">
        <ele>364</ele>
        <time>2021-03-21T16:52:53.000Z</time>
      </trkpt>
      <trkpt lat="47.25061" lon="4.9699">
        <ele>364</ele>
        <time>2021-03-21T16:52:59.000Z</time>
      </trkpt>
      <trkpt lat="47.25066" lon="4.97003">
        <ele>363</ele>
        <time>2021-03-21T16:53:14.000Z</time>
      </trkpt>
      <trkpt lat="47.25066" lon="4.9702">
        <ele>357</ele>
        <time>2021-03-21T16:53:28.000Z</time>
      </trkpt>
      <trkpt lat="47.2506" lon="4.97035">
        <ele>358</ele>
        <time>2021-03-21T16:53:36.000Z</time>
      </trkpt>
      <trkpt lat="47.25057" lon="4.97051">
        <ele>359</ele>
        <time>2021-03-21T16:53:51.000Z</time>
      </trkpt>
      <trkpt lat="47.25052" lon="4.97065">
        <ele>358</ele>
        <time>2021-03-21T16:53:57.000Z</time>
      </trkpt>
      <trkpt lat="47.25046" lon="4.97076">
        <ele>353</ele>
        <time>2021-03-21T16:54:05.000Z</time>
      </trkpt>
      <trkpt lat="47.25048" lon="4.97092">
        <ele>356</ele>
        <time>2021-03-21T16:54:14.000Z</time>
      </trkpt>
      <trkpt lat="47.25057" lon="4.97101">
        <ele>355</ele>
        <time>2021-03-21T16:54:23.000Z</time>
      </trkpt>
      <trkpt lat="47.25068" lon="4.97101">
        <ele>359</ele>
        <time>2021-03-21T16:54:32.000Z</time>
      </trkpt>
      <trkpt lat="47.25079" lon="4.97101">
        <ele>358</ele>
        <time>2021-03-21T16:54:38.000Z</time>
      </trkpt>
      <trkpt lat="47.25089" lon="4.97097">
        <ele>360</ele>
        <time>2021-03-21T16:54:44.000Z</time>
      </trkpt>
      <trkpt lat="47.25099" lon="4.97097">
        <ele>359</ele>
        <time>2021-03-21T16:54:53.000Z</time>
      </trkpt>
      <trkpt lat="47.25111" lon="4.97095">
        <ele>355</ele>
        <time>2021-03-21T16:55:02.000Z</time>
      </trkpt>
      <trkpt lat="47.2512" lon="4.97084">
        <ele>357</ele>
        <time>2021-03-21T16:55:11.000Z</time>
      </trkpt>
      <trkpt lat="47.25131" lon="4.97074">
        <ele>359</ele>
        <time>2021-03-21T16:55:20.000Z</time>
      </trkpt>
      <trkpt lat="47.2514" lon="4.97068">
        <ele>364</ele>
        <time>2021-03-21T16:55:28.000Z</time>
      </trkpt>
      <trkpt lat="47.25149" lon="4.97057">
        <ele>355</ele>
        <time>2021-03-21T16:55:40.000Z</time>
      </trkpt>
      <trkpt lat="47.25158" lon="4.9705">
        <ele>356</ele>
        <time>2021-03-21T16:55:46.000Z</time>
      </trkpt>
      <trkpt lat="47.25168" lon="4.97048">
        <ele>353</ele>
        <time>2021-03-21T16:55:52.000Z</time>
      </trkpt>
      <trkpt lat="47.25177" lon="4.97044">
        <ele>353</ele>
        <time>2021-03-21T16:55:58.000Z</time>
      </trkpt>
      <trkpt lat="47.25187" lon="4.97039">
        <ele>355</ele>
        <time>2021-03-21T16:56:04.000Z</time>
      </trkpt>
      <trkpt lat="47.25197" lon="4.97029">
        <ele>361</ele>
        <time>2021-03-21T16:56:11.000Z</time>
      </trkpt>
      <trkpt lat="47.25209" lon="4.97024">
        <ele>364</ele>
        <time>2021-03-21T16:56:17.000Z</time>
      </trkpt>
      <trkpt lat="47.25219" lon="4.97022">
        <ele>364</ele>
        <time>2021-03-21T16:56:23.000Z</time>
      </trkpt>
      <trkpt lat="47.25229" lon="4.97025">
        <ele>360</ele>
        <time>2021-03-21T16:56:35.000Z</time>
      </trkpt>
      <trkpt lat="47.25238" lon="4.97032">
        <ele>360</ele>
        <time>2021-03-21T16:56:44.000Z</time>
      </trkpt>
      <trkpt lat="47.25251" lon="4.97034">
        <ele>360</ele>
        <time>2021-03-21T16:56:53.000Z</time>
      </trkpt>
      <trkpt lat="47.25261" lon="4.97033">
        <ele>365</ele>
        <time>2021-03-21T16:57:00.000Z</time>
      </trkpt>
      <trkpt lat="47.25271" lon="4.97034">
        <ele>362</ele>
        <time>2021-03-21T16:57:11.000Z</time>
      </trkpt>
      <trkpt lat="47.25282" lon="4.97033">
        <ele>363</ele>
        <time>2021-03-21T16:57:20.000Z</time>
      </trkpt>
      <trkpt lat="47.25292" lon="4.97028">
        <ele>364</ele>
        <time>2021-03-21T16:57:26.000Z</time>
      </trkpt>
      <trkpt lat="47.25302" lon="4.97026">
        <ele>363</ele>
        <time>2021-03-21T16:57:32.000Z</time>
      </trkpt>
      <trkpt lat="47.25312" lon="4.97027">
        <ele>364</ele>
        <time>2021-03-21T16:57:41.000Z</time>
      </trkpt>
      <trkpt lat="47.25321" lon="4.9703">
        <ele>364</ele>
        <time>2021-03-21T16:57:51.000Z</time>
      </trkpt>
      <trkpt lat="47.25331" lon="4.97031">
        <ele>368</ele>
        <time>2021-03-21T16:58:00.000Z</time>
      </trkpt>
      <trkpt lat="47.25341" lon="4.97035">
        <ele>368</ele>
        <time>2021-03-21T16:58:09.000Z</time>
      </trkpt>
      <trkpt lat="47.25351" lon="4.97042">
        <ele>369</ele>
        <time>2021-03-21T16:58:17.000Z</time>
      </trkpt>
      <trkpt lat="47.25357" lon="4.97057">
        <ele>372</ele>
        <time>2021-03-21T16:58:26.000Z</time>
      </trkpt>
      <trkpt lat="47.25363" lon="4.97073">
        <ele>372</ele>
        <time>2021-03-21T16:58:35.000Z</time>
      </trkpt>
      <trkpt lat="47.25364" lon="4.9709">
        <ele>369</ele>
        <time>2021-03-21T16:58:41.000Z</time>
      </trkpt>
      <trkpt lat="47.25367" lon="4.97106">
        <ele>364</ele>
        <time>2021-03-21T16:58:55.000Z</time>
      </trkpt>
      <trkpt lat="47.25373" lon="4.97121">
        <ele>365</ele>
        <time>2021-03-21T16:59:00.000Z</time>
      </trkpt>
      <trkpt lat="47.25378" lon="4.97139">
        <ele>367</ele>
        <time>2021-03-21T16:59:07.000Z</time>
      </trkpt>
      <trkpt lat="47.25381" lon="4.97155">
        <ele>369</ele>
        <time>2021-03-21T16:59:15.000Z</time>
      </trkpt>
      <trkpt lat="47.25385" lon="4.97168">
        <ele>364</ele>
        <time>2021-03-21T16:59:24.000Z</time>
      </trkpt>
      <trkpt lat="47.25394" lon="4.97175">
        <ele>363</ele>
        <time>2021-03-21T16:59:34.000Z</time>
      </trkpt>
      <trkpt lat="47.25403" lon="4.97185">
        <ele>359</ele>
        <time>2021-03-21T16:59:48.000Z</time>
      </trkpt>
      <trkpt lat="47.25415" lon="4.97191">
        <ele>360</ele>
        <time>2021-03-21T16:59:57.000Z</time>
      </trkpt>
      <trkpt lat="47.25423" lon="4.972">
        <ele>359</ele>
        <time>2021-03-21T17:00:04.000Z</time>
      </trkpt>
      <trkpt lat="47.25424" lon="4.97216">
        <ele>363</ele>
        <time>2021-03-21T17:00:10.000Z</time>
      </trkpt>
      <trkpt lat="47.25424" lon="4.97234">
        <ele>366</ele>
        <time>2021-03-21T17:00:19.000Z</time>
      </trkpt>
      <trkpt lat="47.2542" lon="4.97247">
        <ele>363</ele>
        <time>2021-03-21T17:00:26.000Z</time>
      </trkpt>
      <trkpt lat="47.25419" lon="4.97264">
        <ele>363</ele>
        <time>2021-03-21T17:00:32.000Z</time>
      </trkpt>
      <trkpt lat="47.25412" lon="4.97276">
        <ele>362</ele>
        <time>2021-03-21T17:00:38.000Z</time>
      </trkpt>
      <trkpt lat="47.2541" lon="4.9729">
        <ele>365</ele>
        <time>2021-03-21T17:00:47.000Z</time>
      </trkpt>
      <trkpt lat="47.2541" lon="4.9731">
        <ele>363</ele>
        <time>2021-03-21T17:00:56.000Z</time>
      </trkpt>
      <trkpt lat="47.25409" lon="4.97329">
        <ele>364</ele>
        <time>2021-03-21T17:01:02.000Z</time>
      </trkpt>
      <trkpt lat="47.25414" lon="4.97349">
        <ele>367</ele>
        <time>2021-03-21T17:01:10.000Z</time>
      </trkpt>
      <trkpt lat="47.25421" lon="4.97359">
        <ele>364</ele>
        <time>2021-03-21T17:01:17.000Z</time>
      </trkpt>
      <trkpt lat="47.2543" lon="4.97373">
        <ele>367</ele>
        <time>2021-03-21T17:01:29.000Z</time>
      </trkpt>
      <trkpt lat="47.25438" lon="4.97379">
        <ele>366</ele>
        <time>2021-03-21T17:01:35.000Z</time>
      </trkpt>
      <trkpt lat="47.2545" lon="4.97384">
        <ele>363</ele>
        <time>2021-03-21T17:01:44.000Z</time>
      </trkpt>
      <trkpt lat="47.25461" lon="4.97385">
        <ele>360</ele>
        <time>2021-03-21T17:01:52.000Z</time>
      </trkpt>
      <trkpt lat="47.2547" lon="4.97389">
        <ele>359</ele>
        <time>2021-03-21T17:01:58.000Z</time>
      </trkpt>
      <trkpt lat="47.2548" lon="4.97396">
        <ele>359</ele>
        <time>2021-03-21T17:02:07.000Z</time>
      </trkpt>
      <trkpt lat="47.2549" lon="4.97402">
        <ele>358</ele>
        <time>2021-03-21T17:02:16.000Z</time>
      </trkpt>
      <trkpt lat="47.25498" lon="4.97409">
        <ele>357</ele>
        <time>2021-03-21T17:02:22.000Z</time>
      </trkpt>
      <trkpt lat="47.2551" lon="4.97418">
        <ele>358</ele>
        <time>2021-03-21T17:02:34.000Z</time>
      </trkpt>
      <trkpt lat="47.25516" lon="4.97428">
        <ele>358</ele>
        <time>2021-03-21T17:02:42.000Z</time>
      </trkpt>
      <trkpt lat="47.25524" lon="4.97438">
        <ele>357</ele>
        <time>2021-03-21T17:02:51.000Z</time>
      </trkpt>
      <trkpt lat="47.25531" lon="4.97448">
        <ele>362</ele>
        <time>2021-03-21T17:02:57.000Z</time>
      </trkpt>
      <trkpt lat="47.25541" lon="4.97461">
        <ele>358</ele>
        <time>2021-03-21T17:03:06.000Z</time>
      </trkpt>
      <trkpt lat="47.25548" lon="4.97473">
        <ele>358</ele>
        <time>2021-03-21T17:03:18.000Z</time>
      </trkpt>
      <trkpt lat="47.25558" lon="4.97477">
        <ele>363</ele>
        <time>2021-03-21T17:03:27.000Z</time>
      </trkpt>
      <trkpt lat="47.25567" lon="4.97484">
        <ele>360</ele>
        <time>2021-03-21T17:03:34.000Z</time>
      </trkpt>
      <trkpt lat="47.25576" lon="4.9749">
        <ele>360</ele>
        <time>2021-03-21T17:03:40.000Z</time>
      </trkpt>
      <trkpt lat="47.25584" lon="4.97496">
        <ele>359</ele>
        <time>2021-03-21T17:03:46.000Z</time>
      </trkpt>
      <trkpt lat="47.25593" lon="4.97506">
        <ele>363</ele>
        <time>2021-03-21T17:03:53.000Z</time>
      </trkpt>
      <trkpt lat="47.25606" lon="4.97511">
        <ele>360</ele>
        <time>2021-03-21T17:04:08.000Z</time>
      </trkpt>
      <trkpt lat="47.25618" lon="4.97512">
        <ele>361</ele>
        <time>2021-03-21T17:04:14.000Z</time>
      </trkpt>
      <trkpt lat="47.25629" lon="4.97515">
        <ele>363</ele>
        <time>2021-03-21T17:04:20.000Z</time>
      </trkpt>
      <trkpt lat="47.25643" lon="4.97512">
        <ele>367</ele>
        <time>2021-03-21T17:04:29.000Z</time>
      </trkpt>
      <trkpt lat="47.25654" lon="4.97511">
        <ele>364</ele>
        <time>2021-03-21T17:04:38.000Z</time>
      </trkpt>
      <trkpt lat="47.25668" lon="4.97513">
        <ele>365</ele>
        <time>2021-03-21T17:04:47.000Z</time>
      </trkpt>
      <trkpt lat="47.25684" lon="4.97522">
        <ele>361</ele>
        <time>2021-03-21T17:05:07.000Z</time>
      </trkpt>
      <trkpt lat="47.25694" lon="4.9752">
        <ele>359</ele>
        <time>2021-03-21T17:05:13.000Z</time>
      </trkpt>
      <trkpt lat="47.25704" lon="4.97525">
        <ele>358</ele>
        <time>2021-03-21T17:05:20.000Z</time>
      </trkpt>
      <trkpt lat="47.25713" lon="4.97531">
        <ele>355</ele>
        <time>2021-03-21T17:05:28.000Z</time>
      </trkpt>
      <trkpt lat="47.25724" lon="4.97538">
        <ele>354</ele>
        <time>2021-03-21T17:05:37.000Z</time>
      </trkpt>
      <trkpt lat="47.25734" lon="4.97541">
        <ele>358</ele>
        <time>2021-03-21T17:05:43.000Z</time>
      </trkpt>
      <trkpt lat="47.25744" lon="4.9754">
        <ele>356</ele>
        <time>2021-03-21T17:05:52.000Z</time>
      </trkpt>
      <trkpt lat="47.25754" lon="4.97543">
        <ele>355</ele>
        <time>2021-03-21T17:05:59.000Z</time>
      </trkpt>
      <trkpt lat="47.25763" lon="4.97548">
        <ele>357</ele>
        <time>2021-03-21T17:06:06.000Z</time>
      </trkpt>
      <trkpt lat="47.25773" lon="4.97551">
        <ele>354</ele>
        <time>2021-03-21T17:06:15.000Z</time>
      </trkpt>
      <trkpt lat="47.25783" lon="4.97555">
        <ele>354</ele>
        <time>2021-03-21T17:06:24.000Z</time>
      </trkpt>
      <trkpt lat="47.25795" lon="4.97559">
        <ele>356</ele>
        <time>2021-03-21T17:06:31.000Z</time>
      </trkpt>
      <trkpt lat="47.25805" lon="4.97561">
        <ele>357</ele>
        <time>2021-03-21T17:06:40.000Z</time>
      </trkpt>
      <trkpt lat="47.25815" lon="4.97568">
        <ele>355</ele>
        <time>2021-03-21T17:06:49.000Z</time>
      </trkpt>
      <trkpt lat="47.25827" lon="4.97577">
        <ele>354</ele>
        <time>2021-03-21T17:06:58.000Z</time>
      </trkpt>
      <trkpt lat="47.25838" lon="4.9758">
        <ele>359</ele>
        <time>2021-03-21T17:07:07.000Z</time>
      </trkpt>
      <trkpt lat="47.25848" lon="4.97583">
        <ele>352</ele>
        <time>2021-03-21T17:07:19.000Z</time>
      </trkpt>
      <trkpt lat="47.25858" lon="4.97589">
        <ele>353</ele>
        <time>2021-03-21T17:07:28.000Z</time>
      </trkpt>
      <trkpt lat="47.2587" lon="4.9759">
        <ele>351</ele>
        <time>2021-03-21T17:07:39.000Z</time>
      </trkpt>
      <trkpt lat="47.25882" lon="4.97593">
        <ele>349</ele>
        <time>2021-03-21T17:07:48.000Z</time>
      </trkpt>
      <trkpt lat="47.25895" lon="4.97599">
        <ele>350</ele>
        <time>2021-03-21T17:08:01.000Z</time>
      </trkpt>
      <trkpt lat="47.25907" lon="4.97602">
        <ele>347</ele>
        <time>2021-03-21T17:08:09.000Z</time>
      </trkpt>
      <trkpt lat="47.2592" lon="4.97605">
        <ele>352</ele>
        <time>2021-03-21T17:08:18.000Z</time>
      </trkpt>
      <trkpt lat="47.2593" lon="4.97601">
        <ele>352</ele>
        <time>2021-03-21T17:08:27.000Z</time>
      </trkpt>
      <trkpt lat="47.2594" lon="4.97599">
        <ele>351</ele>
        <time>2021-03-21T17:08:36.000Z</time>
      </trkpt>
      <trkpt lat="47.25952" lon="4.97601">
        <ele>348</ele>
        <time>2021-03-21T17:08:44.000Z</time>
      </trkpt>
      <trkpt lat="47.25965" lon="4.97603">
        <ele>347</ele>
        <time>2021-03-21T17:08:55.000Z</time>
      </trkpt>
      <trkpt lat="47.25975" lon="4.97603">
        <ele>347</ele>
        <time>2021-03-21T17:09:04.000Z</time>
      </trkpt>
      <trkpt lat="47.25987" lon="4.97604">
        <ele>347</ele>
        <time>2021-03-21T17:09:13.000Z</time>
      </trkpt>
      <trkpt lat="47.25996" lon="4.97603">
        <ele>349</ele>
        <time>2021-03-21T17:09:22.000Z</time>
      </trkpt>
      <trkpt lat="47.26007" lon="4.97603">
        <ele>357</ele>
        <time>2021-03-21T17:09:30.000Z</time>
      </trkpt>
      <trkpt lat="47.26016" lon="4.97606">
        <ele>353</ele>
        <time>2021-03-21T17:09:36.000Z</time>
      </trkpt>
      <trkpt lat="47.26027" lon="4.97608">
        <ele>351</ele>
        <time>2021-03-21T17:09:45.000Z</time>
      </trkpt>
      <trkpt lat="47.26036" lon="4.97611">
        <ele>351</ele>
        <time>2021-03-21T17:09:52.000Z</time>
      </trkpt>
      <trkpt lat="47.26046" lon="4.97615">
        <ele>353</ele>
        <time>2021-03-21T17:09:58.000Z</time>
      </trkpt>
      <trkpt lat="47.26055" lon="4.97621">
        <ele>351</ele>
        <time>2021-03-21T17:10:07.000Z</time>
      </trkpt>
      <trkpt lat="47.26065" lon="4.97624">
        <ele>350</ele>
        <time>2021-03-21T17:10:16.000Z</time>
      </trkpt>
      <trkpt lat="47.26074" lon="4.97629">
        <ele>350</ele>
        <time>2021-03-21T17:10:22.000Z</time>
      </trkpt>
      <trkpt lat="47.26087" lon="4.97627">
        <ele>354</ele>
        <time>2021-03-21T17:10:32.000Z</time>
      </trkpt>
      <trkpt lat="47.261" lon="4.97631">
        <ele>351</ele>
        <time>2021-03-21T17:10:43.000Z</time>
      </trkpt>
      <trkpt lat="47.26107" lon="4.97641">
        <ele>353</ele>
        <time>2021-03-21T17:10:55.000Z</time>
      </trkpt>
      <trkpt lat="47.26116" lon="4.97646">
        <ele>354</ele>
        <time>2021-03-21T17:11:03.000Z</time>
      </trkpt>
      <trkpt lat="47.26124" lon="4.97653">
        <ele>353</ele>
        <time>2021-03-21T17:11:14.000Z</time>
      </trkpt>
      <trkpt lat="47.26136" lon="4.9765">
        <ele>354</ele>
        <time>2021-03-21T17:11:26.000Z</time>
      </trkpt>
      <trkpt lat="47.26144" lon="4.97641">
        <ele>355</ele>
        <time>2021-03-21T17:11:37.000Z</time>
      </trkpt>
      <trkpt lat="47.26154" lon="4.97631">
        <ele>350</ele>
        <time>2021-03-21T17:11:46.000Z</time>
      </trkpt>
      <trkpt lat="47.26158" lon="4.97615">
        <ele>343</ele>
        <time>2021-03-21T17:11:58.000Z</time>
      </trkpt>
      <trkpt lat="47.26161" lon="4.97599">
        <ele>344</ele>
        <time>2021-03-21T17:12:04.000Z</time>
      </trkpt>
      <trkpt lat="47.26163" lon="4.97586">
        <ele>352</ele>
        <time>2021-03-21T17:12:12.000Z</time>
      </trkpt>
      <trkpt lat="47.26161" lon="4.9757">
        <ele>355</ele>
        <time>2021-03-21T17:12:23.000Z</time>
      </trkpt>
      <trkpt lat="47.26166" lon="4.97558">
        <ele>352</ele>
        <time>2021-03-21T17:12:35.000Z</time>
      </trkpt>
      <trkpt lat="47.26166" lon="4.9754">
        <ele>352</ele>
        <time>2021-03-21T17:12:44.000Z</time>
      </trkpt>
      <trkpt lat="47.26167" lon="4.97522">
        <ele>354</ele>
        <time>2021-03-21T17:12:53.000Z</time>
      </trkpt>
      <trkpt lat="47.26166" lon="4.97508">
        <ele>359</ele>
        <time>2021-03-21T17:13:02.000Z</time>
      </trkpt>
      <trkpt lat="47.26167" lon="4.97491">
        <ele>364</ele>
        <time>2021-03-21T17:13:11.000Z</time>
      </trkpt>
      <trkpt lat="47.26166" lon="4.97472">
        <ele>362</ele>
        <time>2021-03-21T17:13:20.000Z</time>
      </trkpt>
      <trkpt lat="47.26167" lon="4.97456">
        <ele>361</ele>
        <time>2021-03-21T17:13:32.000Z</time>
      </trkpt>
    </trkseg>
  </trk>
</gpx>